UAL30 KEWR-EDDM
Flight info
| Callsign | UAL30 |
|---|---|
| Flight time | 7h 25m |
| Altitude | 33000 |
| Route | DCT MERIT DCT HFD DCT PUT DCT BOS DCT TUSKY N501B ALLRY/M082F350 DCT 51N050W 52N040W 53N030W 54N020W DCT DOGAL DCT BEXET/N0469F350 DCT LIFFY/N0468F370 UL975 WAL M16 DOLAS DCT NAVPI DCT DODEN/N0479F330 DCT TABUM DCT BOMBI T104 HAREM/N0468F270 T104 ROKIL ROKIL1A |
| Aircraft | B764/H-SDE3FGHIM3RWXY/LB1 |
Departure
| Time | 2026-05-06 11:52 |
|---|---|
| Airport | Newark Liberty International Airport (KEWR) |
Arrival
| Time | 2026-05-06 19:17 |
|---|---|
| Airport | Munich Airport (EDDM) |
| Time | Latitude | Longitude | Altitude | Speed | Heading |
|---|---|---|---|---|---|
| 2026-05-06 11:26 | 40.69883 | -74.18067 | 30 ft | 0 kts | 106° |
| 2026-05-06 11:41 | 40.69887 | -74.18083 | 30 ft | 2 kts | 106° |
| 2026-05-06 11:41 | 40.69891 | -74.18102 | 30 ft | 1 kts | 106° |
| 2026-05-06 11:41 | 40.69894 | -74.18115 | 30 ft | 2 kts | 98° |
| 2026-05-06 11:41 | 40.69892 | -74.18134 | 30 ft | 2 kts | 64° |
| 2026-05-06 11:42 | 40.69883 | -74.18149 | 30 ft | 2 kts | 37° |
| 2026-05-06 11:42 | 40.69870 | -74.18157 | 30 ft | 2 kts | 10° |
| 2026-05-06 11:42 | 40.69855 | -74.18156 | 30 ft | 2 kts | 342° |
| 2026-05-06 11:42 | 40.69850 | -74.18153 | 30 ft | 1 kts | 333° |
| 2026-05-06 11:43 | 40.69848 | -74.18152 | 30 ft | 0 kts | 334° |
| 2026-05-06 11:45 | 40.69859 | -74.18159 | 30 ft | 4 kts | 337° |
| 2026-05-06 11:45 | 40.69900 | -74.18168 | 30 ft | 7 kts | 0° |
| 2026-05-06 11:45 | 40.69961 | -74.18156 | 30 ft | 10 kts | 12° |
| 2026-05-06 11:46 | 40.70044 | -74.18134 | 30 ft | 13 kts | 13° |
| 2026-05-06 11:46 | 40.70145 | -74.18092 | 30 ft | 14 kts | 34° |
| 2026-05-06 11:46 | 40.70164 | -74.17959 | 30 ft | 16 kts | 94° |
| 2026-05-06 11:46 | 40.70153 | -74.17790 | 30 ft | 20 kts | 95° |
| 2026-05-06 11:47 | 40.70140 | -74.17593 | 30 ft | 23 kts | 96° |
| 2026-05-06 11:47 | 40.70125 | -74.17368 | 30 ft | 26 kts | 95° |
| 2026-05-06 11:47 | 40.70108 | -74.17115 | 30 ft | 29 kts | 95° |
| 2026-05-06 11:47 | 40.70090 | -74.16842 | 30 ft | 28 kts | 94° |
| 2026-05-06 11:48 | 40.70079 | -74.16675 | 30 ft | 16 kts | 96° |
| 2026-05-06 11:48 | 40.70068 | -74.16537 | 30 ft | 13 kts | 94° |
| 2026-05-06 11:48 | 40.70097 | -74.16489 | 29 ft | 5 kts | 21° |
| 2026-05-06 11:48 | 40.70133 | -74.16474 | 30 ft | 5 kts | 17° |
| 2026-05-06 11:49 | 40.70175 | -74.16466 | 30 ft | 6 kts | 4° |
| 2026-05-06 11:49 | 40.70233 | -74.16460 | 30 ft | 10 kts | 5° |
| 2026-05-06 11:49 | 40.70277 | -74.16402 | 30 ft | 10 kts | 83° |
| 2026-05-06 11:49 | 40.70307 | -74.16303 | 29 ft | 13 kts | 57° |
| 2026-05-06 11:50 | 40.70297 | -74.16209 | 30 ft | 10 kts | 166° |
| 2026-05-06 11:50 | 40.70247 | -74.16225 | 29 ft | 0 kts | 206° |
| 2026-05-06 11:50 | 40.70246 | -74.16225 | 30 ft | 1 kts | 206° |
| 2026-05-06 11:51 | 40.70171 | -74.16273 | 30 ft | 32 kts | 206° |
| 2026-05-06 11:51 | 40.69809 | -74.16504 | 30 ft | 82 kts | 206° |
| 2026-05-06 11:51 | 40.69157 | -74.16911 | 30 ft | 125 kts | 205° |
| 2026-05-06 11:51 | 40.68250 | -74.17492 | 44 ft | 161 kts | 206° |
| 2026-05-06 11:52 | 40.67200 | -74.18185 | 288 ft | 174 kts | 207° |
| 2026-05-06 11:52 | 40.66136 | -74.18929 | 871 ft | 171 kts | 208° |
| 2026-05-06 11:52 | 40.65096 | -74.19645 | 1290 ft | 173 kts | 207° |
| 2026-05-06 11:52 | 40.63989 | -74.20361 | 1549 ft | 178 kts | 206° |
| 2026-05-06 11:53 | 40.62782 | -74.20775 | 1795 ft | 188 kts | 180° |
| 2026-05-06 11:53 | 40.61531 | -74.20061 | 2029 ft | 214 kts | 143° |
| 2026-05-06 11:53 | 40.60764 | -74.18217 | 2084 ft | 254 kts | 107° |
| 2026-05-06 11:53 | 40.60800 | -74.15746 | 2111 ft | 293 kts | 78° |
| 2026-05-06 11:54 | 40.61736 | -74.13358 | 2927 ft | 292 kts | 54° |
| 2026-05-06 11:54 | 40.62966 | -74.11205 | 3359 ft | 305 kts | 54° |
| 2026-05-06 11:54 | 40.64238 | -74.08965 | 4135 ft | 302 kts | 54° |
| 2026-05-06 11:54 | 40.65492 | -74.06750 | 4816 ft | 303 kts | 54° |
| 2026-05-06 11:55 | 40.66744 | -74.04542 | 5517 ft | 304 kts | 54° |
| 2026-05-06 11:55 | 40.68014 | -74.02314 | 6154 ft | 306 kts | 54° |
| 2026-05-06 11:55 | 40.69283 | -74.00078 | 6849 ft | 307 kts | 54° |
| 2026-05-06 11:55 | 40.70586 | -73.97807 | 7352 ft | 315 kts | 54° |
| 2026-05-06 11:56 | 40.71897 | -73.95519 | 8009 ft | 316 kts | 53° |
| 2026-05-06 11:56 | 40.73343 | -73.93327 | 8550 ft | 322 kts | 40° |
| 2026-05-06 11:56 | 40.75064 | -73.91461 | 9135 ft | 326 kts | 41° |
| 2026-05-06 11:56 | 40.76773 | -73.89481 | 9717 ft | 330 kts | 41° |
| 2026-05-06 11:57 | 40.78486 | -73.87449 | 10362 ft | 332 kts | 42° |
| 2026-05-06 11:57 | 40.80248 | -73.85330 | 10450 ft | 356 kts | 42° |
| 2026-05-06 11:57 | 40.82140 | -73.83038 | 10509 ft | 382 kts | 43° |
| 2026-05-06 11:57 | 40.84167 | -73.80567 | 10561 ft | 409 kts | 42° |
| 2026-05-06 11:58 | 40.86283 | -73.77986 | 11148 ft | 419 kts | 43° |
| 2026-05-06 11:58 | 40.88421 | -73.75370 | 11841 ft | 427 kts | 42° |
| 2026-05-06 11:58 | 40.90624 | -73.72671 | 12570 ft | 433 kts | 43° |
| 2026-05-06 11:58 | 40.92844 | -73.69951 | 13296 ft | 440 kts | 42° |
| 2026-05-06 11:59 | 40.95076 | -73.67211 | 14099 ft | 443 kts | 42° |
| 2026-05-06 11:59 | 40.97337 | -73.64434 | 14862 ft | 448 kts | 42° |
| 2026-05-06 11:59 | 40.99608 | -73.61641 | 15685 ft | 450 kts | 42° |
| 2026-05-06 11:59 | 41.01905 | -73.58813 | 16374 ft | 456 kts | 41° |
| 2026-05-06 12:00 | 41.04236 | -73.55942 | 17074 ft | 462 kts | 41° |
| 2026-05-06 12:00 | 41.06584 | -73.53045 | 17869 ft | 464 kts | 41° |
| 2026-05-06 12:00 | 41.08947 | -73.50129 | 18604 ft | 469 kts | 41° |
| 2026-05-06 12:00 | 41.11345 | -73.47163 | 19447 ft | 470 kts | 41° |
| 2026-05-06 12:01 | 41.13737 | -73.44204 | 20140 ft | 475 kts | 41° |
| 2026-05-06 12:01 | 41.16163 | -73.41201 | 20800 ft | 479 kts | 40° |
| 2026-05-06 12:01 | 41.18577 | -73.38206 | 21428 ft | 484 kts | 40° |
| 2026-05-06 12:01 | 41.21056 | -73.35130 | 22089 ft | 486 kts | 40° |
| 2026-05-06 12:02 | 41.23507 | -73.32085 | 22733 ft | 488 kts | 40° |
| 2026-05-06 12:02 | 41.26007 | -73.28976 | 23258 ft | 493 kts | 40° |
| 2026-05-06 12:02 | 41.28522 | -73.25842 | 23798 ft | 497 kts | 40° |
| 2026-05-06 12:02 | 41.31060 | -73.22681 | 24358 ft | 500 kts | 40° |
| 2026-05-06 12:03 | 41.33609 | -73.19501 | 24729 ft | 507 kts | 40° |
| 2026-05-06 12:03 | 41.36139 | -73.16301 | 25271 ft | 510 kts | 43° |
| 2026-05-06 12:03 | 41.38479 | -73.12692 | 25712 ft | 518 kts | 52° |
| 2026-05-06 12:03 | 41.40422 | -73.08651 | 26223 ft | 521 kts | 58° |
| 2026-05-06 12:04 | 41.42276 | -73.04485 | 26566 ft | 526 kts | 57° |
| 2026-05-06 12:04 | 41.44137 | -73.00304 | 27021 ft | 529 kts | 58° |
| 2026-05-06 12:04 | 41.46015 | -72.96067 | 27376 ft | 532 kts | 58° |
| 2026-05-06 12:04 | 41.47887 | -72.91828 | 27793 ft | 534 kts | 57° |
| 2026-05-06 12:05 | 41.49784 | -72.87528 | 28147 ft | 537 kts | 58° |
| 2026-05-06 12:05 | 41.51669 | -72.83239 | 28471 ft | 539 kts | 57° |
| 2026-05-06 12:05 | 41.53554 | -72.78945 | 28923 ft | 539 kts | 57° |
| 2026-05-06 12:05 | 41.55436 | -72.74653 | 29368 ft | 538 kts | 57° |
| 2026-05-06 12:06 | 41.57308 | -72.70372 | 29811 ft | 536 kts | 57° |
| 2026-05-06 12:06 | 41.59175 | -72.66101 | 30201 ft | 535 kts | 57° |
| 2026-05-06 12:06 | 41.61040 | -72.61824 | 30636 ft | 533 kts | 57° |
| 2026-05-06 12:06 | 41.62897 | -72.57561 | 30881 ft | 535 kts | 57° |
| 2026-05-06 12:07 | 41.64769 | -72.53297 | 31335 ft | 531 kts | 56° |
| 2026-05-06 12:07 | 41.66679 | -72.49083 | 31594 ft | 533 kts | 56° |
| 2026-05-06 12:07 | 41.68580 | -72.44867 | 31972 ft | 531 kts | 56° |
| 2026-05-06 12:07 | 41.70477 | -72.40659 | 32321 ft | 530 kts | 56° |
| 2026-05-06 12:08 | 41.72380 | -72.36427 | 32675 ft | 529 kts | 56° |
| 2026-05-06 12:08 | 41.74262 | -72.32239 | 32911 ft | 526 kts | 56° |
| 2026-05-06 12:08 | 41.78014 | -72.23869 | 32930 ft | 523 kts | 56° |
| 2026-05-06 12:09 | 41.81746 | -72.15520 | 32924 ft | 526 kts | 57° |
| 2026-05-06 12:09 | 41.85492 | -72.07116 | 32926 ft | 527 kts | 57° |
| 2026-05-06 12:10 | 41.89235 | -71.98693 | 32924 ft | 526 kts | 57° |
| 2026-05-06 12:10 | 41.92971 | -71.90265 | 32934 ft | 526 kts | 57° |
| 2026-05-06 12:11 | 41.96771 | -71.81838 | 32924 ft | 527 kts | 54° |
| 2026-05-06 12:11 | 42.00709 | -71.73592 | 32925 ft | 524 kts | 54° |
| 2026-05-06 12:12 | 42.04617 | -71.65367 | 32935 ft | 525 kts | 55° |
| 2026-05-06 12:12 | 42.08516 | -71.57133 | 32924 ft | 524 kts | 55° |
| 2026-05-06 12:13 | 42.12421 | -71.48863 | 32934 ft | 525 kts | 54° |
| 2026-05-06 12:13 | 42.16306 | -71.40613 | 32933 ft | 523 kts | 54° |
| 2026-05-06 12:14 | 42.20200 | -71.32323 | 32931 ft | 522 kts | 56° |
| 2026-05-06 12:14 | 42.24066 | -71.24064 | 32933 ft | 522 kts | 56° |
| 2026-05-06 12:15 | 42.27926 | -71.15800 | 32929 ft | 522 kts | 55° |
| 2026-05-06 12:15 | 42.31786 | -71.07513 | 32927 ft | 523 kts | 56° |
| 2026-05-06 12:16 | 42.35571 | -70.99137 | 32916 ft | 523 kts | 62° |
| 2026-05-06 12:16 | 42.38560 | -70.90241 | 32919 ft | 524 kts | 64° |
| 2026-05-06 12:17 | 42.41515 | -70.81207 | 32920 ft | 525 kts | 64° |
| 2026-05-06 12:17 | 42.44426 | -70.72234 | 32931 ft | 523 kts | 65° |
| 2026-05-06 12:18 | 42.47326 | -70.63251 | 32924 ft | 524 kts | 64° |
| 2026-05-06 12:18 | 42.50222 | -70.54242 | 32930 ft | 524 kts | 65° |
| 2026-05-06 12:19 | 42.53125 | -70.45177 | 32932 ft | 524 kts | 64° |
| 2026-05-06 12:19 | 42.55999 | -70.36176 | 32933 ft | 523 kts | 64° |
| 2026-05-06 12:20 | 42.58884 | -70.27110 | 32930 ft | 523 kts | 65° |
| 2026-05-06 12:20 | 42.61745 | -70.18087 | 32936 ft | 523 kts | 65° |
| 2026-05-06 12:21 | 42.64597 | -70.09064 | 32947 ft | 523 kts | 65° |
| 2026-05-06 12:21 | 42.67457 | -69.99981 | 32943 ft | 523 kts | 65° |
| 2026-05-06 12:22 | 42.70300 | -69.90923 | 32945 ft | 523 kts | 65° |
| 2026-05-06 12:22 | 42.73146 | -69.81824 | 32954 ft | 522 kts | 65° |
| 2026-05-06 12:23 | 42.75956 | -69.72807 | 32953 ft | 521 kts | 65° |
| 2026-05-06 12:23 | 42.78777 | -69.63727 | 32951 ft | 522 kts | 65° |
| 2026-05-06 12:24 | 42.81575 | -69.54690 | 32948 ft | 522 kts | 65° |
| 2026-05-06 12:24 | 42.84388 | -69.45571 | 32956 ft | 523 kts | 65° |
| 2026-05-06 12:25 | 42.87177 | -69.36496 | 32959 ft | 523 kts | 65° |
| 2026-05-06 12:25 | 42.89964 | -69.27397 | 32946 ft | 523 kts | 65° |
| 2026-05-06 12:26 | 42.92756 | -69.18253 | 32966 ft | 521 kts | 65° |
| 2026-05-06 12:26 | 42.95516 | -69.09181 | 32972 ft | 522 kts | 65° |
| 2026-05-06 12:27 | 42.98294 | -69.00019 | 32976 ft | 522 kts | 66° |
| 2026-05-06 12:27 | 43.01045 | -68.90909 | 32972 ft | 522 kts | 65° |
| 2026-05-06 12:28 | 43.03807 | -68.81734 | 32968 ft | 523 kts | 65° |
| 2026-05-06 12:28 | 43.06543 | -68.72612 | 32969 ft | 522 kts | 65° |
| 2026-05-06 12:29 | 43.09285 | -68.63439 | 32969 ft | 521 kts | 65° |
| 2026-05-06 12:29 | 43.12004 | -68.54305 | 32978 ft | 521 kts | 65° |
| 2026-05-06 12:30 | 43.14713 | -68.45179 | 32985 ft | 521 kts | 65° |
| 2026-05-06 12:30 | 43.17434 | -68.35980 | 32975 ft | 521 kts | 65° |
| 2026-05-06 12:31 | 43.20132 | -68.26818 | 32975 ft | 518 kts | 65° |
| 2026-05-06 12:31 | 43.22803 | -68.17724 | 32982 ft | 519 kts | 65° |
| 2026-05-06 12:32 | 43.25496 | -68.08521 | 32990 ft | 520 kts | 65° |
| 2026-05-06 12:32 | 43.28157 | -67.99388 | 32994 ft | 518 kts | 65° |
| 2026-05-06 12:33 | 43.30825 | -67.90205 | 32991 ft | 519 kts | 66° |
| 2026-05-06 12:33 | 43.33469 | -67.81065 | 33000 ft | 518 kts | 65° |
| 2026-05-06 12:34 | 43.36116 | -67.71884 | 33008 ft | 516 kts | 65° |
| 2026-05-06 12:34 | 43.38736 | -67.62763 | 33010 ft | 517 kts | 66° |
| 2026-05-06 12:35 | 43.41372 | -67.53558 | 33012 ft | 517 kts | 66° |
| 2026-05-06 12:35 | 43.43974 | -67.44430 | 33005 ft | 516 kts | 66° |
| 2026-05-06 12:36 | 43.46589 | -67.35231 | 33014 ft | 516 kts | 66° |
| 2026-05-06 12:36 | 43.49187 | -67.26053 | 33009 ft | 516 kts | 66° |
| 2026-05-06 12:37 | 43.51764 | -67.16912 | 33010 ft | 515 kts | 66° |
| 2026-05-06 12:37 | 43.54346 | -67.07727 | 33011 ft | 514 kts | 67° |
| 2026-05-06 12:38 | 43.57323 | -66.98874 | 33027 ft | 510 kts | 54° |
| 2026-05-06 12:38 | 43.61706 | -66.91213 | 33023 ft | 508 kts | 47° |
| 2026-05-06 12:39 | 43.66183 | -66.83737 | 33014 ft | 509 kts | 47° |
| 2026-05-06 12:39 | 43.70680 | -66.76174 | 33017 ft | 509 kts | 47° |
| 2026-05-06 12:40 | 43.75132 | -66.68656 | 33016 ft | 509 kts | 47° |
| 2026-05-06 12:40 | 43.79620 | -66.61053 | 33017 ft | 511 kts | 47° |
| 2026-05-06 12:41 | 43.84075 | -66.53481 | 33025 ft | 509 kts | 47° |
| 2026-05-06 12:41 | 43.88540 | -66.45874 | 33026 ft | 509 kts | 47° |
| 2026-05-06 12:42 | 43.92977 | -66.38294 | 33028 ft | 510 kts | 47° |
| 2026-05-06 12:42 | 43.97456 | -66.30624 | 33021 ft | 511 kts | 48° |
| 2026-05-06 12:43 | 44.01888 | -66.23011 | 33030 ft | 510 kts | 48° |
| 2026-05-06 12:43 | 44.06346 | -66.15334 | 33027 ft | 510 kts | 48° |
| 2026-05-06 12:44 | 44.10760 | -66.07713 | 33027 ft | 509 kts | 48° |
| 2026-05-06 12:44 | 44.15210 | -66.00011 | 33026 ft | 511 kts | 48° |
| 2026-05-06 12:45 | 44.19635 | -65.92329 | 33023 ft | 511 kts | 48° |
| 2026-05-06 12:46 | 44.26290 | -65.80739 | 33029 ft | 512 kts | 48° |
| 2026-05-06 12:46 | 44.30709 | -65.73019 | 33031 ft | 511 kts | 48° |
| 2026-05-06 12:47 | 44.35143 | -65.65250 | 33028 ft | 512 kts | 48° |
| 2026-05-06 12:47 | 44.39558 | -65.57492 | 33029 ft | 512 kts | 48° |
| 2026-05-06 12:48 | 44.43961 | -65.49736 | 33034 ft | 513 kts | 48° |
| 2026-05-06 12:48 | 44.48393 | -65.41909 | 33033 ft | 513 kts | 48° |
| 2026-05-06 12:49 | 44.52786 | -65.34127 | 33027 ft | 512 kts | 49° |
| 2026-05-06 12:49 | 44.57214 | -65.26264 | 33022 ft | 515 kts | 49° |
| 2026-05-06 12:50 | 44.61621 | -65.18413 | 33016 ft | 514 kts | 49° |
| 2026-05-06 12:50 | 44.66022 | -65.10556 | 33022 ft | 515 kts | 49° |
| 2026-05-06 12:51 | 44.70443 | -65.02640 | 33017 ft | 515 kts | 49° |
| 2026-05-06 12:51 | 44.74831 | -64.94761 | 33010 ft | 516 kts | 49° |
| 2026-05-06 12:52 | 44.79252 | -64.86800 | 33025 ft | 517 kts | 49° |
| 2026-05-06 12:52 | 44.83642 | -64.78872 | 33015 ft | 517 kts | 49° |
| 2026-05-06 12:53 | 44.88061 | -64.70872 | 33020 ft | 517 kts | 49° |
| 2026-05-06 12:53 | 44.92435 | -64.62930 | 33015 ft | 516 kts | 49° |
| 2026-05-06 12:54 | 44.96841 | -64.54906 | 33020 ft | 518 kts | 49° |
| 2026-05-06 12:54 | 45.01212 | -64.46926 | 33017 ft | 516 kts | 49° |
| 2026-05-06 12:55 | 45.05603 | -64.38888 | 33017 ft | 517 kts | 49° |
| 2026-05-06 12:55 | 45.09974 | -64.30861 | 33006 ft | 518 kts | 50° |
| 2026-05-06 12:56 | 45.14343 | -64.22818 | 33013 ft | 518 kts | 50° |
| 2026-05-06 12:56 | 45.18729 | -64.14716 | 33008 ft | 519 kts | 50° |
| 2026-05-06 12:57 | 45.23099 | -64.06622 | 33014 ft | 518 kts | 50° |
| 2026-05-06 12:57 | 45.27447 | -63.98550 | 33012 ft | 519 kts | 50° |
| 2026-05-06 12:58 | 45.31832 | -63.90382 | 33018 ft | 517 kts | 49° |
| 2026-05-06 12:58 | 45.36159 | -63.82301 | 33028 ft | 517 kts | 50° |
| 2026-05-06 12:59 | 45.40510 | -63.74152 | 33012 ft | 518 kts | 50° |
| 2026-05-06 12:59 | 45.44837 | -63.66022 | 33019 ft | 519 kts | 50° |
| 2026-05-06 13:00 | 45.49151 | -63.57894 | 33012 ft | 517 kts | 50° |
| 2026-05-06 13:00 | 45.53476 | -63.49723 | 33016 ft | 517 kts | 50° |
| 2026-05-06 13:01 | 45.57782 | -63.41565 | 33018 ft | 519 kts | 50° |
| 2026-05-06 13:01 | 45.62107 | -63.33346 | 33016 ft | 516 kts | 50° |
| 2026-05-06 13:02 | 45.66387 | -63.25191 | 33007 ft | 517 kts | 51° |
| 2026-05-06 13:02 | 45.70697 | -63.16954 | 33019 ft | 517 kts | 50° |
| 2026-05-06 13:03 | 45.74966 | -63.08769 | 33012 ft | 516 kts | 51° |
| 2026-05-06 13:03 | 45.79251 | -63.00532 | 33016 ft | 516 kts | 51° |
| 2026-05-06 13:04 | 45.83512 | -62.92316 | 33002 ft | 518 kts | 50° |
| 2026-05-06 13:04 | 45.87797 | -62.84033 | 33011 ft | 517 kts | 51° |
| 2026-05-06 13:05 | 45.92045 | -62.75791 | 33001 ft | 518 kts | 51° |
| 2026-05-06 13:05 | 45.96325 | -62.67466 | 33019 ft | 518 kts | 50° |
| 2026-05-06 13:06 | 46.00562 | -62.59199 | 33007 ft | 516 kts | 51° |
| 2026-05-06 13:06 | 46.04819 | -62.50873 | 33013 ft | 517 kts | 51° |
| 2026-05-06 13:07 | 46.09040 | -62.42590 | 33015 ft | 517 kts | 51° |
| 2026-05-06 13:07 | 46.13265 | -62.34275 | 33015 ft | 516 kts | 52° |
| 2026-05-06 13:08 | 46.17479 | -62.25955 | 33013 ft | 515 kts | 51° |
| 2026-05-06 13:08 | 46.21704 | -62.17592 | 33012 ft | 516 kts | 51° |
| 2026-05-06 13:09 | 46.25914 | -62.09229 | 33018 ft | 514 kts | 51° |
| 2026-05-06 13:09 | 46.30091 | -62.00910 | 33018 ft | 516 kts | 51° |
| 2026-05-06 13:10 | 46.34269 | -61.92564 | 33019 ft | 515 kts | 52° |
| 2026-05-06 13:10 | 46.38456 | -61.84175 | 33021 ft | 512 kts | 52° |
| 2026-05-06 13:11 | 46.42601 | -61.75844 | 33018 ft | 514 kts | 52° |
| 2026-05-06 13:11 | 46.46781 | -61.67420 | 33025 ft | 514 kts | 52° |
| 2026-05-06 13:12 | 46.50910 | -61.59073 | 33026 ft | 511 kts | 52° |
| 2026-05-06 13:12 | 46.55054 | -61.50670 | 33028 ft | 513 kts | 52° |
| 2026-05-06 13:13 | 46.59167 | -61.42305 | 33033 ft | 511 kts | 52° |
| 2026-05-06 13:13 | 46.63289 | -61.33896 | 33035 ft | 511 kts | 53° |
| 2026-05-06 13:14 | 46.67382 | -61.25517 | 33022 ft | 512 kts | 52° |
| 2026-05-06 13:14 | 46.71498 | -61.17072 | 33026 ft | 511 kts | 53° |
| 2026-05-06 13:15 | 46.75572 | -61.08686 | 33020 ft | 510 kts | 53° |
| 2026-05-06 13:15 | 46.79662 | -61.00240 | 33010 ft | 511 kts | 53° |
| 2026-05-06 13:16 | 46.83726 | -60.91822 | 33014 ft | 510 kts | 53° |
| 2026-05-06 13:16 | 46.87813 | -60.83334 | 33014 ft | 511 kts | 53° |
| 2026-05-06 13:17 | 46.91867 | -60.74885 | 33011 ft | 512 kts | 53° |
| 2026-05-06 13:17 | 46.95948 | -60.66352 | 33009 ft | 512 kts | 52° |
| 2026-05-06 13:18 | 46.99997 | -60.57868 | 33017 ft | 512 kts | 53° |
| 2026-05-06 13:18 | 47.04060 | -60.49321 | 33012 ft | 511 kts | 53° |
| 2026-05-06 13:19 | 47.08102 | -60.40795 | 33022 ft | 513 kts | 53° |
| 2026-05-06 13:19 | 47.12177 | -60.32173 | 33014 ft | 514 kts | 53° |
| 2026-05-06 13:20 | 47.16213 | -60.23606 | 33016 ft | 514 kts | 54° |
| 2026-05-06 13:20 | 47.20276 | -60.14954 | 33007 ft | 515 kts | 54° |
| 2026-05-06 13:21 | 47.24313 | -60.06332 | 33005 ft | 514 kts | 54° |
| 2026-05-06 13:21 | 47.28357 | -59.97665 | 33005 ft | 514 kts | 53° |
| 2026-05-06 13:22 | 47.32374 | -59.89032 | 32999 ft | 514 kts | 54° |
| 2026-05-06 13:22 | 47.36409 | -59.80331 | 33009 ft | 514 kts | 54° |
| 2026-05-06 13:23 | 47.40402 | -59.71694 | 33020 ft | 513 kts | 54° |
| 2026-05-06 13:23 | 47.44420 | -59.62978 | 33031 ft | 513 kts | 54° |
| 2026-05-06 13:24 | 47.48394 | -59.54326 | 33027 ft | 512 kts | 54° |
| 2026-05-06 13:24 | 47.52398 | -59.45585 | 33030 ft | 514 kts | 54° |
| 2026-05-06 13:25 | 47.56360 | -59.36903 | 33027 ft | 512 kts | 54° |
| 2026-05-06 13:25 | 47.60334 | -59.28170 | 33020 ft | 510 kts | 55° |
| 2026-05-06 13:26 | 47.64273 | -59.19486 | 33021 ft | 512 kts | 55° |
| 2026-05-06 13:26 | 47.68205 | -59.10790 | 33025 ft | 510 kts | 55° |
| 2026-05-06 13:27 | 47.72148 | -59.02043 | 33024 ft | 511 kts | 55° |
| 2026-05-06 13:27 | 47.76063 | -58.93329 | 33033 ft | 510 kts | 55° |
| 2026-05-06 13:28 | 47.80001 | -58.84536 | 33019 ft | 511 kts | 55° |
| 2026-05-06 13:28 | 47.83906 | -58.75790 | 33032 ft | 510 kts | 55° |
| 2026-05-06 13:29 | 47.87816 | -58.67003 | 33023 ft | 509 kts | 55° |
| 2026-05-06 13:29 | 47.91695 | -58.58258 | 33020 ft | 510 kts | 55° |
| 2026-05-06 13:30 | 47.95597 | -58.49433 | 33035 ft | 510 kts | 55° |
| 2026-05-06 13:30 | 47.99468 | -58.40650 | 33029 ft | 510 kts | 55° |
| 2026-05-06 13:31 | 48.03348 | -58.31818 | 33037 ft | 509 kts | 56° |
| 2026-05-06 13:31 | 48.07220 | -58.22974 | 33046 ft | 508 kts | 56° |
| 2026-05-06 13:32 | 48.11062 | -58.14170 | 33035 ft | 510 kts | 56° |
| 2026-05-06 13:32 | 48.14945 | -58.05246 | 33032 ft | 510 kts | 56° |
| 2026-05-06 13:33 | 48.18774 | -57.96414 | 33032 ft | 509 kts | 57° |
| 2026-05-06 13:33 | 48.22626 | -57.87501 | 33041 ft | 510 kts | 57° |
| 2026-05-06 13:34 | 48.26452 | -57.78619 | 33037 ft | 512 kts | 57° |
| 2026-05-06 13:34 | 48.30301 | -57.69653 | 33037 ft | 511 kts | 57° |
| 2026-05-06 13:35 | 48.34125 | -57.60715 | 33039 ft | 511 kts | 57° |
| 2026-05-06 13:35 | 48.37947 | -57.51755 | 33037 ft | 512 kts | 57° |
| 2026-05-06 13:36 | 48.41754 | -57.42798 | 33030 ft | 511 kts | 57° |
| 2026-05-06 13:36 | 48.45578 | -57.33771 | 33030 ft | 511 kts | 57° |
| 2026-05-06 13:37 | 48.49366 | -57.24801 | 33029 ft | 511 kts | 57° |
| 2026-05-06 13:37 | 48.53182 | -57.15733 | 33032 ft | 511 kts | 57° |
| 2026-05-06 13:38 | 48.56956 | -57.06736 | 33029 ft | 510 kts | 57° |
| 2026-05-06 13:38 | 48.60715 | -56.97744 | 33017 ft | 510 kts | 57° |
| 2026-05-06 13:39 | 48.64496 | -56.88669 | 33025 ft | 510 kts | 57° |
| 2026-05-06 13:39 | 48.68248 | -56.79632 | 33032 ft | 510 kts | 57° |
| 2026-05-06 13:40 | 48.71987 | -56.70598 | 33016 ft | 510 kts | 57° |
| 2026-05-06 13:40 | 48.75750 | -56.61473 | 33023 ft | 509 kts | 57° |
| 2026-05-06 13:41 | 48.79472 | -56.52417 | 33025 ft | 511 kts | 57° |
| 2026-05-06 13:41 | 48.83213 | -56.43284 | 33028 ft | 510 kts | 57° |
| 2026-05-06 13:42 | 48.86937 | -56.34161 | 33026 ft | 509 kts | 58° |
| 2026-05-06 13:42 | 48.90635 | -56.25073 | 33014 ft | 509 kts | 58° |
| 2026-05-06 13:43 | 48.94328 | -56.15962 | 33010 ft | 508 kts | 58° |
| 2026-05-06 13:43 | 48.98032 | -56.06794 | 33019 ft | 508 kts | 58° |
| 2026-05-06 13:44 | 49.01703 | -55.97677 | 33017 ft | 509 kts | 58° |
| 2026-05-06 13:44 | 49.05378 | -55.88521 | 33007 ft | 511 kts | 58° |
| 2026-05-06 13:45 | 49.09082 | -55.79258 | 33009 ft | 511 kts | 58° |
| 2026-05-06 13:45 | 49.14587 | -55.65431 | 33018 ft | 511 kts | 58° |
| 2026-05-06 13:46 | 49.18251 | -55.56186 | 33010 ft | 513 kts | 58° |
| 2026-05-06 13:46 | 49.21934 | -55.46862 | 33017 ft | 512 kts | 58° |
| 2026-05-06 13:47 | 49.25586 | -55.37588 | 33020 ft | 515 kts | 58° |
| 2026-05-06 13:47 | 49.29283 | -55.28161 | 33010 ft | 513 kts | 59° |
| 2026-05-06 13:48 | 49.32932 | -55.18826 | 33016 ft | 514 kts | 59° |
| 2026-05-06 13:48 | 49.36577 | -55.09468 | 33012 ft | 514 kts | 59° |
| 2026-05-06 13:49 | 49.40228 | -55.00058 | 33017 ft | 514 kts | 58° |
| 2026-05-06 13:49 | 49.43858 | -54.90671 | 33012 ft | 514 kts | 58° |
| 2026-05-06 13:50 | 49.47492 | -54.81243 | 33013 ft | 514 kts | 58° |
| 2026-05-06 13:50 | 49.51118 | -54.71796 | 33017 ft | 514 kts | 58° |
| 2026-05-06 13:51 | 49.54723 | -54.62372 | 33007 ft | 514 kts | 58° |
| 2026-05-06 13:51 | 49.58341 | -54.52882 | 33013 ft | 514 kts | 58° |
| 2026-05-06 13:52 | 49.61920 | -54.43458 | 33017 ft | 513 kts | 58° |
| 2026-05-06 13:52 | 49.65523 | -54.33937 | 33012 ft | 514 kts | 59° |
| 2026-05-06 13:53 | 49.69099 | -54.24453 | 33005 ft | 514 kts | 59° |
| 2026-05-06 13:53 | 49.72688 | -54.14899 | 33002 ft | 514 kts | 59° |
| 2026-05-06 13:54 | 49.76245 | -54.05396 | 32996 ft | 514 kts | 59° |
| 2026-05-06 13:54 | 49.79819 | -53.95813 | 32998 ft | 515 kts | 59° |
| 2026-05-06 13:55 | 49.83363 | -53.86275 | 32995 ft | 515 kts | 59° |
| 2026-05-06 13:55 | 49.86917 | -53.76674 | 33003 ft | 514 kts | 59° |
| 2026-05-06 13:56 | 49.90435 | -53.67134 | 32998 ft | 513 kts | 59° |
| 2026-05-06 13:56 | 49.93971 | -53.57513 | 33014 ft | 514 kts | 59° |
| 2026-05-06 13:57 | 49.97478 | -53.47932 | 33012 ft | 513 kts | 58° |
| 2026-05-06 13:57 | 50.01002 | -53.38273 | 33014 ft | 514 kts | 59° |
| 2026-05-06 13:58 | 50.04494 | -53.28664 | 33016 ft | 514 kts | 59° |
| 2026-05-06 13:58 | 50.07996 | -53.18990 | 33017 ft | 513 kts | 59° |
| 2026-05-06 13:59 | 50.11487 | -53.09310 | 33021 ft | 514 kts | 59° |
| 2026-05-06 13:59 | 50.14955 | -52.99657 | 33018 ft | 515 kts | 59° |
| 2026-05-06 14:00 | 50.18444 | -52.89909 | 33022 ft | 514 kts | 59° |
| 2026-05-06 14:00 | 50.21901 | -52.80217 | 33031 ft | 515 kts | 59° |
| 2026-05-06 14:01 | 50.25381 | -52.70422 | 33027 ft | 516 kts | 59° |
| 2026-05-06 14:01 | 50.28824 | -52.60692 | 33020 ft | 515 kts | 59° |
| 2026-05-06 14:02 | 50.32281 | -52.50885 | 33023 ft | 516 kts | 59° |
| 2026-05-06 14:02 | 50.35707 | -52.41132 | 33026 ft | 515 kts | 58° |
| 2026-05-06 14:03 | 50.39148 | -52.31296 | 33020 ft | 514 kts | 59° |
| 2026-05-06 14:03 | 50.42551 | -52.21532 | 33022 ft | 516 kts | 59° |
| 2026-05-06 14:04 | 50.45979 | -52.11660 | 33010 ft | 515 kts | 59° |
| 2026-05-06 14:04 | 50.49263 | -52.01769 | 33018 ft | 516 kts | 64° |
| 2026-05-06 14:05 | 50.52134 | -51.91423 | 33019 ft | 516 kts | 65° |
| 2026-05-06 14:05 | 50.54896 | -51.81058 | 33436 ft | 518 kts | 65° |
| 2026-05-06 14:06 | 50.56253 | -51.75877 | 33915 ft | 516 kts | 65° |
| 2026-05-06 14:06 | 50.57618 | -51.70629 | 34239 ft | 516 kts | 65° |
| 2026-05-06 14:06 | 50.58956 | -51.65457 | 34640 ft | 514 kts | 65° |
| 2026-05-06 14:06 | 50.60288 | -51.60290 | 34962 ft | 512 kts | 65° |
| 2026-05-06 14:07 | 50.62946 | -51.49935 | 35024 ft | 509 kts | 65° |
| 2026-05-06 14:07 | 50.65561 | -51.39686 | 35025 ft | 508 kts | 65° |
| 2026-05-06 14:08 | 50.68176 | -51.29387 | 35017 ft | 509 kts | 66° |
| 2026-05-06 14:08 | 50.70799 | -51.19004 | 35015 ft | 511 kts | 66° |
| 2026-05-06 14:09 | 50.73397 | -51.08669 | 35018 ft | 510 kts | 66° |
| 2026-05-06 14:09 | 50.76001 | -50.98268 | 35027 ft | 509 kts | 66° |
| 2026-05-06 14:10 | 50.78574 | -50.87942 | 35028 ft | 509 kts | 66° |
| 2026-05-06 14:10 | 50.81161 | -50.77513 | 35017 ft | 510 kts | 65° |
| 2026-05-06 14:11 | 50.83718 | -50.67153 | 35013 ft | 508 kts | 65° |
| 2026-05-06 14:11 | 50.86280 | -50.56726 | 35022 ft | 510 kts | 65° |
| 2026-05-06 14:12 | 50.88815 | -50.46361 | 35014 ft | 508 kts | 65° |
| 2026-05-06 14:12 | 50.91352 | -50.35937 | 35016 ft | 507 kts | 65° |
| 2026-05-06 14:13 | 50.93860 | -50.25585 | 35007 ft | 507 kts | 66° |
| 2026-05-06 14:13 | 50.96369 | -50.15177 | 35001 ft | 508 kts | 66° |
| 2026-05-06 14:14 | 50.98869 | -50.04758 | 35008 ft | 508 kts | 66° |
| 2026-05-06 14:14 | 51.00816 | -49.93961 | 35025 ft | 511 kts | 73° |
| 2026-05-06 14:15 | 51.02434 | -49.83055 | 35014 ft | 512 kts | 74° |
| 2026-05-06 14:15 | 51.04026 | -49.72049 | 35029 ft | 511 kts | 74° |
| 2026-05-06 14:16 | 51.05586 | -49.61134 | 35039 ft | 510 kts | 74° |
| 2026-05-06 14:16 | 51.07141 | -49.50140 | 35036 ft | 511 kts | 74° |
| 2026-05-06 14:17 | 51.08671 | -49.39241 | 35043 ft | 508 kts | 73° |
| 2026-05-06 14:17 | 51.10198 | -49.28280 | 35049 ft | 509 kts | 74° |
| 2026-05-06 14:18 | 51.11705 | -49.17378 | 35050 ft | 510 kts | 74° |
| 2026-05-06 14:18 | 51.13215 | -49.06375 | 35063 ft | 508 kts | 73° |
| 2026-05-06 14:19 | 51.14701 | -48.95468 | 35069 ft | 509 kts | 73° |
| 2026-05-06 14:19 | 51.16194 | -48.84434 | 35062 ft | 510 kts | 73° |
| 2026-05-06 14:20 | 51.17663 | -48.73478 | 35060 ft | 510 kts | 73° |
| 2026-05-06 14:20 | 51.19127 | -48.62494 | 35065 ft | 510 kts | 73° |
| 2026-05-06 14:21 | 51.20585 | -48.51450 | 35064 ft | 509 kts | 73° |
| 2026-05-06 14:21 | 51.22022 | -48.40489 | 35071 ft | 509 kts | 73° |
| 2026-05-06 14:22 | 51.23464 | -48.29414 | 35060 ft | 512 kts | 73° |
| 2026-05-06 14:22 | 51.24889 | -48.18364 | 35069 ft | 513 kts | 73° |
| 2026-05-06 14:23 | 51.26314 | -48.07233 | 35068 ft | 512 kts | 73° |
| 2026-05-06 14:23 | 51.27719 | -47.96173 | 35067 ft | 513 kts | 73° |
| 2026-05-06 14:24 | 51.29122 | -47.85029 | 35069 ft | 513 kts | 73° |
| 2026-05-06 14:24 | 51.30509 | -47.73937 | 35073 ft | 513 kts | 73° |
| 2026-05-06 14:25 | 51.31895 | -47.62759 | 35080 ft | 514 kts | 73° |
| 2026-05-06 14:25 | 51.33268 | -47.51590 | 35081 ft | 514 kts | 73° |
| 2026-05-06 14:26 | 51.34625 | -47.40447 | 35089 ft | 514 kts | 72° |
| 2026-05-06 14:26 | 51.35981 | -47.29235 | 35075 ft | 515 kts | 73° |
| 2026-05-06 14:27 | 51.37323 | -47.18043 | 35079 ft | 517 kts | 73° |
| 2026-05-06 14:27 | 51.38664 | -47.06752 | 35079 ft | 517 kts | 73° |
| 2026-05-06 14:28 | 51.39984 | -46.95539 | 35076 ft | 516 kts | 73° |
| 2026-05-06 14:28 | 51.41301 | -46.84268 | 35080 ft | 516 kts | 73° |
| 2026-05-06 14:29 | 51.42596 | -46.73077 | 35093 ft | 516 kts | 73° |
| 2026-05-06 14:29 | 51.43892 | -46.61776 | 35097 ft | 515 kts | 73° |
| 2026-05-06 14:30 | 51.45166 | -46.50579 | 35096 ft | 515 kts | 72° |
| 2026-05-06 14:30 | 51.46443 | -46.39241 | 35100 ft | 516 kts | 72° |
| 2026-05-06 14:31 | 51.47695 | -46.28023 | 35090 ft | 515 kts | 73° |
| 2026-05-06 14:31 | 51.48940 | -46.16789 | 35094 ft | 516 kts | 73° |
| 2026-05-06 14:32 | 51.50184 | -46.05441 | 35098 ft | 518 kts | 73° |
| 2026-05-06 14:32 | 51.51406 | -45.94163 | 35098 ft | 514 kts | 72° |
| 2026-05-06 14:33 | 51.52618 | -45.82903 | 35104 ft | 513 kts | 72° |
| 2026-05-06 14:33 | 51.53808 | -45.71739 | 35105 ft | 511 kts | 72° |
| 2026-05-06 14:34 | 51.54996 | -45.60487 | 35108 ft | 511 kts | 72° |
| 2026-05-06 14:34 | 51.56165 | -45.49307 | 35114 ft | 510 kts | 72° |
| 2026-05-06 14:35 | 51.57325 | -45.38107 | 35117 ft | 507 kts | 72° |
| 2026-05-06 14:35 | 51.58464 | -45.27005 | 35104 ft | 508 kts | 73° |
| 2026-05-06 14:36 | 51.59602 | -45.15815 | 35103 ft | 508 kts | 73° |
| 2026-05-06 14:36 | 51.60722 | -45.04666 | 35105 ft | 507 kts | 72° |
| 2026-05-06 14:37 | 51.61834 | -44.93492 | 35101 ft | 505 kts | 72° |
| 2026-05-06 14:37 | 51.62929 | -44.82396 | 35110 ft | 506 kts | 72° |
| 2026-05-06 14:38 | 51.64013 | -44.71275 | 35109 ft | 506 kts | 72° |
| 2026-05-06 14:38 | 51.65099 | -44.60062 | 35113 ft | 508 kts | 72° |
| 2026-05-06 14:39 | 51.66166 | -44.48883 | 35114 ft | 510 kts | 72° |
| 2026-05-06 14:39 | 51.67231 | -44.37617 | 35120 ft | 510 kts | 72° |
| 2026-05-06 14:40 | 51.68279 | -44.26437 | 35105 ft | 509 kts | 73° |
| 2026-05-06 14:40 | 51.69319 | -44.15201 | 35115 ft | 510 kts | 73° |
| 2026-05-06 14:41 | 51.70355 | -44.03889 | 35112 ft | 511 kts | 72° |
| 2026-05-06 14:41 | 51.71371 | -43.92656 | 35111 ft | 509 kts | 72° |
| 2026-05-06 14:42 | 51.72382 | -43.81381 | 35110 ft | 508 kts | 72° |
| 2026-05-06 14:42 | 51.73375 | -43.70189 | 35114 ft | 509 kts | 72° |
| 2026-05-06 14:43 | 51.74365 | -43.58897 | 35113 ft | 510 kts | 72° |
| 2026-05-06 14:43 | 51.75342 | -43.47619 | 35117 ft | 512 kts | 72° |
| 2026-05-06 14:44 | 51.76308 | -43.36290 | 35115 ft | 507 kts | 72° |
| 2026-05-06 14:45 | 51.77724 | -43.19535 | 35103 ft | 506 kts | 72° |
| 2026-05-06 14:45 | 51.78657 | -43.08310 | 35112 ft | 506 kts | 72° |
| 2026-05-06 14:46 | 51.79585 | -42.97050 | 35109 ft | 507 kts | 72° |
| 2026-05-06 14:46 | 51.80494 | -42.85852 | 35110 ft | 508 kts | 73° |
| 2026-05-06 14:47 | 51.81403 | -42.74522 | 35110 ft | 509 kts | 72° |
| 2026-05-06 14:47 | 51.82289 | -42.63312 | 35109 ft | 506 kts | 73° |
| 2026-05-06 14:48 | 51.83167 | -42.52103 | 35113 ft | 506 kts | 72° |
| 2026-05-06 14:48 | 51.84041 | -42.40793 | 35118 ft | 507 kts | 72° |
| 2026-05-06 14:49 | 51.84896 | -42.29568 | 35107 ft | 508 kts | 73° |
| 2026-05-06 14:49 | 51.85752 | -42.18215 | 35105 ft | 510 kts | 74° |
| 2026-05-06 14:50 | 51.86594 | -42.06886 | 35103 ft | 513 kts | 73° |
| 2026-05-06 14:50 | 51.87431 | -41.95444 | 35082 ft | 512 kts | 74° |
| 2026-05-06 14:51 | 51.88252 | -41.84099 | 35093 ft | 510 kts | 74° |
| 2026-05-06 14:51 | 51.89066 | -41.72699 | 35095 ft | 511 kts | 74° |
| 2026-05-06 14:52 | 51.89862 | -41.61357 | 35092 ft | 511 kts | 74° |
| 2026-05-06 14:52 | 51.90654 | -41.49939 | 35091 ft | 512 kts | 74° |
| 2026-05-06 14:53 | 51.91433 | -41.38562 | 35090 ft | 513 kts | 74° |
| 2026-05-06 14:53 | 51.92206 | -41.27093 | 35068 ft | 515 kts | 75° |
| 2026-05-06 14:54 | 51.92964 | -41.15643 | 35091 ft | 515 kts | 75° |
| 2026-05-06 14:54 | 51.93717 | -41.04122 | 35076 ft | 514 kts | 75° |
| 2026-05-06 14:55 | 51.94454 | -40.92683 | 35078 ft | 515 kts | 76° |
| 2026-05-06 14:55 | 51.95181 | -40.81206 | 35099 ft | 515 kts | 76° |
| 2026-05-06 14:56 | 51.95902 | -40.69643 | 35098 ft | 514 kts | 76° |
| 2026-05-06 14:56 | 51.96600 | -40.58256 | 35080 ft | 511 kts | 76° |
| 2026-05-06 14:57 | 51.97288 | -40.46878 | 35102 ft | 509 kts | 76° |
| 2026-05-06 14:57 | 51.97964 | -40.35490 | 35100 ft | 506 kts | 77° |
| 2026-05-06 14:58 | 51.98625 | -40.24197 | 35093 ft | 506 kts | 78° |
| 2026-05-06 14:58 | 51.99274 | -40.12898 | 35095 ft | 504 kts | 78° |
| 2026-05-06 14:59 | 51.99914 | -40.01578 | 35071 ft | 503 kts | 78° |
| 2026-05-06 14:59 | 52.01161 | -39.90685 | 35104 ft | 491 kts | 68° |
| 2026-05-06 15:00 | 52.02834 | -39.79915 | 35077 ft | 493 kts | 69° |
| 2026-05-06 15:00 | 52.04413 | -39.69178 | 35068 ft | 493 kts | 70° |
| 2026-05-06 15:01 | 52.05969 | -39.58324 | 35070 ft | 493 kts | 70° |
| 2026-05-06 15:01 | 52.07486 | -39.47589 | 35087 ft | 491 kts | 70° |
| 2026-05-06 15:02 | 52.09002 | -39.36772 | 35093 ft | 492 kts | 71° |
| 2026-05-06 15:02 | 52.10501 | -39.25975 | 35102 ft | 493 kts | 72° |
| 2026-05-06 15:03 | 52.11994 | -39.15136 | 35095 ft | 493 kts | 72° |
| 2026-05-06 15:03 | 52.13478 | -39.04288 | 35100 ft | 490 kts | 72° |
| 2026-05-06 15:04 | 52.14948 | -38.93469 | 35105 ft | 491 kts | 72° |
| 2026-05-06 15:04 | 52.16399 | -38.82700 | 35108 ft | 490 kts | 72° |
| 2026-05-06 15:05 | 52.17847 | -38.71877 | 35114 ft | 489 kts | 72° |
| 2026-05-06 15:05 | 52.19274 | -38.61139 | 35105 ft | 490 kts | 72° |
| 2026-05-06 15:06 | 52.20694 | -38.50366 | 35113 ft | 490 kts | 73° |
| 2026-05-06 15:06 | 52.22112 | -38.39524 | 35115 ft | 488 kts | 73° |
| 2026-05-06 15:07 | 52.23516 | -38.28713 | 35105 ft | 488 kts | 74° |
| 2026-05-06 15:07 | 52.24906 | -38.17921 | 35111 ft | 489 kts | 74° |
| 2026-05-06 15:08 | 52.26282 | -38.07156 | 35103 ft | 488 kts | 74° |
| 2026-05-06 15:08 | 52.27654 | -37.96334 | 35112 ft | 487 kts | 74° |
| 2026-05-06 15:09 | 52.29005 | -37.85602 | 35108 ft | 486 kts | 74° |
| 2026-05-06 15:09 | 52.30353 | -37.74803 | 35104 ft | 486 kts | 74° |
| 2026-05-06 15:10 | 52.31681 | -37.64085 | 35098 ft | 485 kts | 74° |
| 2026-05-06 15:10 | 52.33009 | -37.53289 | 35096 ft | 485 kts | 75° |
| 2026-05-06 15:11 | 52.34317 | -37.42559 | 35100 ft | 485 kts | 74° |
| 2026-05-06 15:11 | 52.35623 | -37.31757 | 35091 ft | 485 kts | 75° |
| 2026-05-06 15:12 | 52.36911 | -37.21025 | 35095 ft | 485 kts | 75° |
| 2026-05-06 15:12 | 52.38197 | -37.10210 | 35092 ft | 484 kts | 76° |
| 2026-05-06 15:13 | 52.39463 | -36.99482 | 35090 ft | 484 kts | 76° |
| 2026-05-06 15:13 | 52.40728 | -36.88677 | 35090 ft | 484 kts | 76° |
| 2026-05-06 15:14 | 52.41975 | -36.77932 | 35083 ft | 484 kts | 76° |
| 2026-05-06 15:14 | 52.43219 | -36.67121 | 35084 ft | 483 kts | 76° |
| 2026-05-06 15:15 | 52.44447 | -36.56359 | 35087 ft | 484 kts | 76° |
| 2026-05-06 15:15 | 52.45664 | -36.45604 | 35079 ft | 483 kts | 76° |
| 2026-05-06 15:16 | 52.46878 | -36.34776 | 35081 ft | 483 kts | 77° |
| 2026-05-06 15:16 | 52.48074 | -36.24025 | 35078 ft | 483 kts | 77° |
| 2026-05-06 15:17 | 52.49267 | -36.13202 | 35076 ft | 482 kts | 77° |
| 2026-05-06 15:17 | 52.50438 | -36.02476 | 35069 ft | 481 kts | 77° |
| 2026-05-06 15:18 | 52.51608 | -35.91676 | 35069 ft | 482 kts | 77° |
| 2026-05-06 15:18 | 52.52764 | -35.80908 | 35070 ft | 483 kts | 77° |
| 2026-05-06 15:19 | 52.53909 | -35.70136 | 35070 ft | 482 kts | 77° |
| 2026-05-06 15:19 | 52.55051 | -35.59298 | 35070 ft | 482 kts | 77° |
| 2026-05-06 15:20 | 52.56176 | -35.48528 | 35071 ft | 482 kts | 78° |
| 2026-05-06 15:20 | 52.57300 | -35.37666 | 35072 ft | 482 kts | 78° |
| 2026-05-06 15:21 | 52.58405 | -35.26896 | 35071 ft | 481 kts | 78° |
| 2026-05-06 15:21 | 52.59507 | -35.16032 | 35070 ft | 481 kts | 79° |
| 2026-05-06 15:22 | 52.60590 | -35.05264 | 35069 ft | 481 kts | 79° |
| 2026-05-06 15:22 | 52.61671 | -34.94413 | 35067 ft | 481 kts | 79° |
| 2026-05-06 15:23 | 52.62735 | -34.83631 | 35068 ft | 481 kts | 79° |
| 2026-05-06 15:23 | 52.63790 | -34.72830 | 35062 ft | 481 kts | 79° |
| 2026-05-06 15:24 | 52.64843 | -34.61950 | 35063 ft | 482 kts | 79° |
| 2026-05-06 15:24 | 52.65879 | -34.51136 | 35059 ft | 482 kts | 79° |
| 2026-05-06 15:25 | 52.66911 | -34.40258 | 35052 ft | 481 kts | 79° |
| 2026-05-06 15:25 | 52.67924 | -34.29464 | 35047 ft | 481 kts | 80° |
| 2026-05-06 15:26 | 52.68936 | -34.18573 | 35038 ft | 481 kts | 80° |
| 2026-05-06 15:26 | 52.69930 | -34.07761 | 35035 ft | 481 kts | 80° |
| 2026-05-06 15:27 | 52.70920 | -33.96882 | 35036 ft | 481 kts | 80° |
| 2026-05-06 15:27 | 52.71894 | -33.86065 | 35036 ft | 481 kts | 80° |
| 2026-05-06 15:28 | 52.72864 | -33.75176 | 35038 ft | 480 kts | 80° |
| 2026-05-06 15:28 | 52.73817 | -33.64365 | 35033 ft | 480 kts | 80° |
| 2026-05-06 15:29 | 52.74766 | -33.53480 | 35032 ft | 481 kts | 80° |
| 2026-05-06 15:29 | 52.75701 | -33.42642 | 35028 ft | 481 kts | 81° |
| 2026-05-06 15:30 | 52.76632 | -33.31726 | 35029 ft | 481 kts | 81° |
| 2026-05-06 15:30 | 52.77547 | -33.20879 | 35034 ft | 481 kts | 81° |
| 2026-05-06 15:31 | 52.78458 | -33.09946 | 35027 ft | 481 kts | 81° |
| 2026-05-06 15:31 | 52.79353 | -32.99101 | 35025 ft | 480 kts | 81° |
| 2026-05-06 15:32 | 52.80682 | -32.82753 | 35034 ft | 480 kts | 82° |
| 2026-05-06 15:32 | 52.81557 | -32.71815 | 35029 ft | 481 kts | 81° |
| 2026-05-06 15:33 | 52.82418 | -32.60939 | 35020 ft | 481 kts | 82° |
| 2026-05-06 15:33 | 52.83274 | -32.49987 | 35030 ft | 481 kts | 81° |
| 2026-05-06 15:34 | 52.84114 | -32.39110 | 35023 ft | 481 kts | 82° |
| 2026-05-06 15:34 | 52.84949 | -32.28159 | 35018 ft | 481 kts | 82° |
| 2026-05-06 15:35 | 52.85772 | -32.17244 | 35020 ft | 483 kts | 82° |
| 2026-05-06 15:35 | 52.86591 | -32.06234 | 35013 ft | 483 kts | 83° |
| 2026-05-06 15:36 | 52.87393 | -31.95306 | 35012 ft | 482 kts | 83° |
| 2026-05-06 15:36 | 52.88190 | -31.84308 | 35015 ft | 482 kts | 82° |
| 2026-05-06 15:37 | 52.88972 | -31.73374 | 35019 ft | 483 kts | 83° |
| 2026-05-06 15:37 | 52.89749 | -31.62367 | 35015 ft | 481 kts | 83° |
| 2026-05-06 15:38 | 52.90509 | -31.51461 | 35009 ft | 480 kts | 83° |
| 2026-05-06 15:38 | 52.91264 | -31.40474 | 35008 ft | 481 kts | 83° |
| 2026-05-06 15:39 | 52.92005 | -31.29531 | 35007 ft | 482 kts | 84° |
| 2026-05-06 15:39 | 52.92737 | -31.18580 | 35000 ft | 481 kts | 84° |
| 2026-05-06 15:40 | 52.93462 | -31.07579 | 34992 ft | 481 kts | 84° |
| 2026-05-06 15:40 | 52.94171 | -30.96657 | 34989 ft | 480 kts | 84° |
| 2026-05-06 15:41 | 52.94874 | -30.85672 | 34982 ft | 479 kts | 84° |
| 2026-05-06 15:41 | 52.95562 | -30.74766 | 34989 ft | 481 kts | 84° |
| 2026-05-06 15:42 | 52.96246 | -30.63757 | 34988 ft | 480 kts | 84° |
| 2026-05-06 15:42 | 52.96914 | -30.52830 | 34973 ft | 481 kts | 84° |
| 2026-05-06 15:43 | 52.97578 | -30.41804 | 34964 ft | 481 kts | 84° |
| 2026-05-06 15:43 | 52.98228 | -30.30850 | 34955 ft | 481 kts | 85° |
| 2026-05-06 15:44 | 52.98872 | -30.19805 | 34958 ft | 482 kts | 85° |
| 2026-05-06 15:44 | 52.99503 | -30.08820 | 34961 ft | 482 kts | 85° |
| 2026-05-06 15:45 | 53.00198 | -29.97804 | 34942 ft | 480 kts | 80° |
| 2026-05-06 15:45 | 53.01786 | -29.87139 | 34949 ft | 481 kts | 76° |
| 2026-05-06 15:46 | 53.03377 | -29.76356 | 34948 ft | 481 kts | 77° |
| 2026-05-06 15:46 | 53.04921 | -29.65625 | 34952 ft | 481 kts | 77° |
| 2026-05-06 15:47 | 53.06459 | -29.54786 | 34951 ft | 482 kts | 77° |
| 2026-05-06 15:47 | 53.07975 | -29.43990 | 34942 ft | 483 kts | 77° |
| 2026-05-06 15:48 | 53.09493 | -29.33098 | 34933 ft | 484 kts | 78° |
| 2026-05-06 15:48 | 53.10988 | -29.22280 | 34927 ft | 483 kts | 78° |
| 2026-05-06 15:49 | 53.12480 | -29.11407 | 34916 ft | 482 kts | 78° |
| 2026-05-06 15:49 | 53.13950 | -29.00615 | 34928 ft | 482 kts | 78° |
| 2026-05-06 15:50 | 53.15424 | -28.89712 | 34938 ft | 483 kts | 78° |
| 2026-05-06 15:50 | 53.16878 | -28.78876 | 34922 ft | 483 kts | 78° |
| 2026-05-06 15:51 | 53.18336 | -28.67939 | 34944 ft | 485 kts | 78° |
| 2026-05-06 15:51 | 53.19778 | -28.57027 | 34955 ft | 486 kts | 78° |
| 2026-05-06 15:52 | 53.21220 | -28.46029 | 34963 ft | 486 kts | 78° |
| 2026-05-06 15:52 | 53.22643 | -28.35103 | 34952 ft | 486 kts | 78° |
| 2026-05-06 15:53 | 53.24066 | -28.24085 | 34943 ft | 486 kts | 79° |
| 2026-05-06 15:53 | 53.25469 | -28.13145 | 34957 ft | 486 kts | 79° |
| 2026-05-06 15:54 | 53.26872 | -28.02109 | 34942 ft | 485 kts | 79° |
| 2026-05-06 15:54 | 53.28252 | -27.91176 | 34946 ft | 485 kts | 79° |
| 2026-05-06 15:55 | 53.29635 | -27.80126 | 34955 ft | 487 kts | 79° |
| 2026-05-06 15:55 | 53.31001 | -27.69122 | 34948 ft | 488 kts | 79° |
| 2026-05-06 15:56 | 53.32360 | -27.58093 | 34974 ft | 488 kts | 79° |
| 2026-05-06 15:56 | 53.33717 | -27.46986 | 34979 ft | 488 kts | 79° |
| 2026-05-06 15:57 | 53.35053 | -27.35959 | 34979 ft | 487 kts | 79° |
| 2026-05-06 15:57 | 53.36388 | -27.24851 | 34975 ft | 488 kts | 81° |
| 2026-05-06 15:58 | 53.37707 | -27.13781 | 34984 ft | 489 kts | 81° |
| 2026-05-06 15:58 | 53.39027 | -27.02611 | 34982 ft | 489 kts | 81° |
| 2026-05-06 15:59 | 53.40325 | -26.91533 | 34975 ft | 488 kts | 81° |
| 2026-05-06 15:59 | 53.41621 | -26.80372 | 34981 ft | 489 kts | 81° |
| 2026-05-06 16:00 | 53.42899 | -26.69272 | 34989 ft | 489 kts | 81° |
| 2026-05-06 16:00 | 53.44178 | -26.58074 | 34988 ft | 490 kts | 81° |
| 2026-05-06 16:01 | 53.45438 | -26.46935 | 34997 ft | 490 kts | 81° |
| 2026-05-06 16:01 | 53.46697 | -26.35715 | 34994 ft | 490 kts | 81° |
| 2026-05-06 16:02 | 53.47937 | -26.24557 | 34997 ft | 490 kts | 82° |
| 2026-05-06 16:02 | 53.49167 | -26.13386 | 34993 ft | 490 kts | 82° |
| 2026-05-06 16:03 | 53.50394 | -26.02153 | 35002 ft | 489 kts | 82° |
| 2026-05-06 16:03 | 53.51609 | -25.90918 | 35001 ft | 490 kts | 82° |
| 2026-05-06 16:04 | 53.52808 | -25.79733 | 35009 ft | 491 kts | 82° |
| 2026-05-06 16:04 | 53.53997 | -25.68532 | 35005 ft | 491 kts | 82° |
| 2026-05-06 16:05 | 53.55184 | -25.57244 | 35004 ft | 490 kts | 82° |
| 2026-05-06 16:05 | 53.56351 | -25.46045 | 35014 ft | 490 kts | 82° |
| 2026-05-06 16:06 | 53.57515 | -25.34758 | 34999 ft | 490 kts | 83° |
| 2026-05-06 16:06 | 53.58660 | -25.23562 | 35012 ft | 490 kts | 83° |
| 2026-05-06 16:07 | 53.59803 | -25.12268 | 35013 ft | 490 kts | 83° |
| 2026-05-06 16:07 | 53.60931 | -25.01005 | 35016 ft | 490 kts | 83° |
| 2026-05-06 16:08 | 53.62046 | -24.89775 | 35007 ft | 490 kts | 83° |
| 2026-05-06 16:08 | 53.63157 | -24.78460 | 35009 ft | 490 kts | 83° |
| 2026-05-06 16:09 | 53.64249 | -24.67219 | 35008 ft | 489 kts | 83° |
| 2026-05-06 16:09 | 53.65339 | -24.55908 | 35004 ft | 489 kts | 83° |
| 2026-05-06 16:10 | 53.66408 | -24.44680 | 35011 ft | 489 kts | 83° |
| 2026-05-06 16:10 | 53.67475 | -24.33349 | 35012 ft | 490 kts | 84° |
| 2026-05-06 16:11 | 53.68525 | -24.22105 | 35011 ft | 489 kts | 84° |
| 2026-05-06 16:11 | 53.69570 | -24.10773 | 35007 ft | 490 kts | 84° |
| 2026-05-06 16:12 | 53.70601 | -23.99493 | 35008 ft | 491 kts | 85° |
| 2026-05-06 16:12 | 53.71629 | -23.88100 | 35010 ft | 492 kts | 84° |
| 2026-05-06 16:13 | 53.72640 | -23.76783 | 35014 ft | 491 kts | 84° |
| 2026-05-06 16:13 | 53.73647 | -23.65389 | 35006 ft | 491 kts | 84° |
| 2026-05-06 16:14 | 53.74633 | -23.54096 | 35005 ft | 490 kts | 84° |
| 2026-05-06 16:14 | 53.75616 | -23.42712 | 35013 ft | 490 kts | 84° |
| 2026-05-06 16:15 | 53.76582 | -23.31402 | 35013 ft | 490 kts | 85° |
| 2026-05-06 16:15 | 53.77544 | -23.20008 | 35013 ft | 491 kts | 85° |
| 2026-05-06 16:16 | 53.78491 | -23.08658 | 35013 ft | 492 kts | 85° |
| 2026-05-06 16:16 | 53.79435 | -22.97198 | 35003 ft | 492 kts | 85° |
| 2026-05-06 16:17 | 53.80359 | -22.85852 | 34989 ft | 490 kts | 85° |
| 2026-05-06 16:17 | 53.81277 | -22.74445 | 34984 ft | 491 kts | 85° |
| 2026-05-06 16:18 | 53.82180 | -22.63084 | 34983 ft | 491 kts | 85° |
| 2026-05-06 16:18 | 53.83079 | -22.51639 | 34982 ft | 491 kts | 85° |
| 2026-05-06 16:19 | 53.83960 | -22.40267 | 34975 ft | 491 kts | 85° |
| 2026-05-06 16:19 | 53.84837 | -22.28821 | 34972 ft | 491 kts | 86° |
| 2026-05-06 16:20 | 53.85695 | -22.17453 | 34976 ft | 491 kts | 85° |
| 2026-05-06 16:20 | 53.86550 | -22.05991 | 34970 ft | 491 kts | 85° |
| 2026-05-06 16:21 | 53.87388 | -21.94601 | 34969 ft | 491 kts | 85° |
| 2026-05-06 16:21 | 53.88221 | -21.83135 | 34976 ft | 490 kts | 85° |
| 2026-05-06 16:22 | 53.89035 | -21.71772 | 34984 ft | 489 kts | 85° |
| 2026-05-06 16:22 | 53.89843 | -21.60345 | 34987 ft | 489 kts | 85° |
| 2026-05-06 16:23 | 53.90634 | -21.48992 | 34983 ft | 489 kts | 85° |
| 2026-05-06 16:23 | 53.91420 | -21.37555 | 34982 ft | 489 kts | 85° |
| 2026-05-06 16:24 | 53.92191 | -21.26177 | 34976 ft | 490 kts | 86° |
| 2026-05-06 16:24 | 53.92957 | -21.14698 | 34978 ft | 490 kts | 86° |
| 2026-05-06 16:25 | 53.93706 | -21.03316 | 34973 ft | 489 kts | 86° |
| 2026-05-06 16:25 | 53.94450 | -20.91840 | 34970 ft | 490 kts | 86° |
| 2026-05-06 16:26 | 53.95180 | -20.80411 | 34967 ft | 491 kts | 86° |
| 2026-05-06 16:26 | 53.95903 | -20.68908 | 34971 ft | 490 kts | 86° |
| 2026-05-06 16:27 | 53.96611 | -20.57482 | 34960 ft | 491 kts | 86° |
| 2026-05-06 16:27 | 53.97313 | -20.45953 | 34961 ft | 492 kts | 85° |
| 2026-05-06 16:28 | 53.98001 | -20.34476 | 34964 ft | 493 kts | 86° |
| 2026-05-06 16:28 | 53.98683 | -20.22909 | 34965 ft | 492 kts | 86° |
| 2026-05-06 16:29 | 53.99349 | -20.11436 | 34963 ft | 491 kts | 86° |
| 2026-05-06 16:29 | 53.99941 | -19.99896 | 34952 ft | 490 kts | 89° |
| 2026-05-06 16:30 | 54.00166 | -19.90338 | 34946 ft | 492 kts | 89° |
| 2026-05-06 16:30 | 54.00451 | -19.76751 | 34941 ft | 492 kts | 90° |
| 2026-05-06 16:31 | 54.00669 | -19.65217 | 34946 ft | 492 kts | 90° |
| 2026-05-06 16:31 | 54.00873 | -19.53590 | 34949 ft | 493 kts | 89° |
| 2026-05-06 16:32 | 54.01064 | -19.42033 | 34944 ft | 493 kts | 89° |
| 2026-05-06 16:32 | 54.01244 | -19.30391 | 34949 ft | 493 kts | 90° |
| 2026-05-06 16:33 | 54.01412 | -19.18818 | 34943 ft | 494 kts | 90° |
| 2026-05-06 16:34 | 54.01644 | -19.01327 | 34946 ft | 495 kts | 90° |
| 2026-05-06 16:34 | 54.01784 | -18.89721 | 34952 ft | 495 kts | 90° |
| 2026-05-06 16:35 | 54.01914 | -18.78038 | 34949 ft | 495 kts | 90° |
| 2026-05-06 16:35 | 54.02032 | -18.66442 | 34953 ft | 495 kts | 90° |
| 2026-05-06 16:36 | 54.02139 | -18.54762 | 34951 ft | 494 kts | 90° |
| 2026-05-06 16:36 | 54.02234 | -18.43175 | 34948 ft | 494 kts | 90° |
| 2026-05-06 16:37 | 54.02318 | -18.31538 | 34954 ft | 496 kts | 90° |
| 2026-05-06 16:37 | 54.02392 | -18.19814 | 34946 ft | 497 kts | 90° |
| 2026-05-06 16:38 | 54.02454 | -18.08140 | 34948 ft | 495 kts | 90° |
| 2026-05-06 16:38 | 54.02505 | -17.96458 | 34949 ft | 494 kts | 90° |
| 2026-05-06 16:39 | 54.02544 | -17.84829 | 34946 ft | 495 kts | 90° |
| 2026-05-06 16:39 | 54.02572 | -17.73119 | 34943 ft | 495 kts | 90° |
| 2026-05-06 16:40 | 54.02588 | -17.61500 | 34954 ft | 495 kts | 90° |
| 2026-05-06 16:40 | 54.02594 | -17.49866 | 34958 ft | 496 kts | 90° |
| 2026-05-06 16:41 | 54.02587 | -17.38132 | 34965 ft | 496 kts | 90° |
| 2026-05-06 16:41 | 54.02570 | -17.26480 | 34960 ft | 497 kts | 90° |
| 2026-05-06 16:42 | 54.02542 | -17.14729 | 34954 ft | 498 kts | 90° |
| 2026-05-06 16:42 | 54.02502 | -17.02985 | 34945 ft | 498 kts | 90° |
| 2026-05-06 16:43 | 54.02451 | -16.91283 | 34947 ft | 498 kts | 90° |
| 2026-05-06 16:43 | 54.02388 | -16.79594 | 34947 ft | 497 kts | 90° |
| 2026-05-06 16:44 | 54.02314 | -16.67946 | 34946 ft | 496 kts | 90° |
| 2026-05-06 16:44 | 54.02228 | -16.56200 | 34945 ft | 496 kts | 90° |
| 2026-05-06 16:45 | 54.02132 | -16.44572 | 34946 ft | 496 kts | 90° |
| 2026-05-06 16:45 | 54.02024 | -16.32851 | 34947 ft | 497 kts | 91° |
| 2026-05-06 16:46 | 54.01905 | -16.21213 | 34945 ft | 496 kts | 91° |
| 2026-05-06 16:46 | 54.01775 | -16.09519 | 34944 ft | 495 kts | 91° |
| 2026-05-06 16:47 | 54.01634 | -15.97900 | 34944 ft | 496 kts | 90° |
| 2026-05-06 16:47 | 54.01480 | -15.86200 | 34946 ft | 495 kts | 90° |
| 2026-05-06 16:48 | 54.01317 | -15.74596 | 34948 ft | 495 kts | 90° |
| 2026-05-06 16:48 | 54.01141 | -15.62926 | 34949 ft | 494 kts | 90° |
| 2026-05-06 16:49 | 54.00955 | -15.51335 | 34948 ft | 494 kts | 90° |
| 2026-05-06 16:49 | 54.00757 | -15.39661 | 34954 ft | 495 kts | 90° |
| 2026-05-06 16:50 | 54.00549 | -15.28072 | 34945 ft | 494 kts | 91° |
| 2026-05-06 16:50 | 54.00329 | -15.16437 | 34945 ft | 493 kts | 91° |
| 2026-05-06 16:51 | 54.00099 | -15.04873 | 34948 ft | 494 kts | 90° |
| 2026-05-06 16:51 | 54.00016 | -14.93230 | 34945 ft | 493 kts | 88° |
| 2026-05-06 16:52 | 54.00058 | -14.81675 | 34946 ft | 493 kts | 88° |
| 2026-05-06 16:52 | 54.00086 | -14.70050 | 34945 ft | 492 kts | 88° |
| 2026-05-06 16:53 | 54.00101 | -14.58488 | 34944 ft | 493 kts | 88° |
| 2026-05-06 16:53 | 54.00103 | -14.46843 | 34943 ft | 493 kts | 88° |
| 2026-05-06 16:54 | 54.00094 | -14.35292 | 34945 ft | 493 kts | 88° |
| 2026-05-06 16:54 | 54.00074 | -14.23657 | 34942 ft | 493 kts | 88° |
| 2026-05-06 16:55 | 54.00044 | -14.12093 | 34943 ft | 493 kts | 88° |
| 2026-05-06 16:55 | 54.00000 | -14.00464 | 34943 ft | 492 kts | 89° |
| 2026-05-06 16:56 | 53.99719 | -13.88945 | 34946 ft | 491 kts | 90° |
| 2026-05-06 16:56 | 53.99407 | -13.77375 | 34945 ft | 491 kts | 90° |
| 2026-05-06 16:57 | 53.99087 | -13.65851 | 34945 ft | 493 kts | 90° |
| 2026-05-06 16:57 | 53.98754 | -13.54245 | 34946 ft | 492 kts | 90° |
| 2026-05-06 16:58 | 53.98414 | -13.42739 | 34945 ft | 492 kts | 90° |
| 2026-05-06 16:58 | 53.98060 | -13.31147 | 34943 ft | 492 kts | 91° |
| 2026-05-06 16:59 | 53.97697 | -13.19632 | 34944 ft | 492 kts | 91° |
| 2026-05-06 16:59 | 53.97320 | -13.08055 | 34949 ft | 491 kts | 90° |
| 2026-05-06 17:00 | 53.96936 | -12.96579 | 34960 ft | 491 kts | 90° |
| 2026-05-06 17:00 | 53.96538 | -12.85018 | 34969 ft | 491 kts | 90° |
| 2026-05-06 17:01 | 53.96133 | -12.73557 | 34970 ft | 489 kts | 90° |
| 2026-05-06 17:01 | 53.95715 | -12.62043 | 34971 ft | 489 kts | 90° |
| 2026-05-06 17:02 | 53.95288 | -12.50596 | 34972 ft | 491 kts | 90° |
| 2026-05-06 17:02 | 53.94846 | -12.39030 | 34973 ft | 491 kts | 90° |
| 2026-05-06 17:03 | 53.94395 | -12.27547 | 34976 ft | 489 kts | 91° |
| 2026-05-06 17:03 | 53.93935 | -12.16114 | 34980 ft | 489 kts | 91° |
| 2026-05-06 17:04 | 53.93462 | -12.04606 | 34981 ft | 488 kts | 91° |
| 2026-05-06 17:04 | 53.92980 | -11.93169 | 34980 ft | 487 kts | 91° |
| 2026-05-06 17:05 | 53.92491 | -11.81790 | 34973 ft | 488 kts | 91° |
| 2026-05-06 17:05 | 53.91988 | -11.70373 | 34971 ft | 489 kts | 90° |
| 2026-05-06 17:06 | 53.91471 | -11.58885 | 34971 ft | 488 kts | 90° |
| 2026-05-06 17:06 | 53.90947 | -11.47485 | 34974 ft | 488 kts | 90° |
| 2026-05-06 17:07 | 53.90409 | -11.36009 | 34978 ft | 488 kts | 90° |
| 2026-05-06 17:07 | 53.89864 | -11.24646 | 34980 ft | 487 kts | 91° |
| 2026-05-06 17:08 | 53.89306 | -11.13195 | 34981 ft | 489 kts | 91° |
| 2026-05-06 17:08 | 53.88740 | -11.01833 | 34980 ft | 487 kts | 91° |
| 2026-05-06 17:09 | 53.88160 | -10.90424 | 34972 ft | 487 kts | 91° |
| 2026-05-06 17:09 | 53.87574 | -10.79082 | 34970 ft | 486 kts | 91° |
| 2026-05-06 17:10 | 53.86973 | -10.67668 | 34973 ft | 487 kts | 91° |
| 2026-05-06 17:10 | 53.86366 | -10.56350 | 34973 ft | 486 kts | 91° |
| 2026-05-06 17:11 | 53.85744 | -10.44956 | 34978 ft | 488 kts | 91° |
| 2026-05-06 17:11 | 53.85114 | -10.33621 | 34978 ft | 486 kts | 92° |
| 2026-05-06 17:12 | 53.84467 | -10.22184 | 34978 ft | 486 kts | 92° |
| 2026-05-06 17:12 | 53.83818 | -10.10875 | 34980 ft | 486 kts | 91° |
| 2026-05-06 17:13 | 53.83158 | -9.99566 | 34980 ft | 487 kts | 92° |
| 2026-05-06 17:13 | 53.82480 | -9.88163 | 34977 ft | 488 kts | 92° |
| 2026-05-06 17:14 | 53.81799 | -9.76894 | 34965 ft | 484 kts | 91° |
| 2026-05-06 17:14 | 53.81105 | -9.65576 | 34960 ft | 484 kts | 91° |
| 2026-05-06 17:15 | 53.80404 | -9.54316 | 34959 ft | 486 kts | 91° |
| 2026-05-06 17:15 | 53.79684 | -9.42940 | 34960 ft | 485 kts | 91° |
| 2026-05-06 17:16 | 53.78963 | -9.31694 | 34961 ft | 484 kts | 92° |
| 2026-05-06 17:16 | 53.78229 | -9.20444 | 34962 ft | 486 kts | 92° |
| 2026-05-06 17:17 | 53.77481 | -9.09132 | 34960 ft | 483 kts | 92° |
| 2026-05-06 17:17 | 53.76732 | -8.97964 | 34961 ft | 481 kts | 92° |
| 2026-05-06 17:18 | 53.75968 | -8.86731 | 34961 ft | 482 kts | 92° |
| 2026-05-06 17:18 | 53.75198 | -8.75584 | 34961 ft | 482 kts | 92° |
| 2026-05-06 17:19 | 53.74412 | -8.64347 | 34960 ft | 482 kts | 92° |
| 2026-05-06 17:19 | 53.73621 | -8.53200 | 34957 ft | 481 kts | 92° |
| 2026-05-06 17:20 | 53.72816 | -8.41988 | 34956 ft | 481 kts | 92° |
| 2026-05-06 17:20 | 53.72004 | -8.30833 | 34953 ft | 481 kts | 93° |
| 2026-05-06 17:21 | 53.71184 | -8.19731 | 34950 ft | 480 kts | 93° |
| 2026-05-06 17:21 | 53.70350 | -8.08568 | 34950 ft | 480 kts | 93° |
| 2026-05-06 17:22 | 53.69510 | -7.97476 | 34951 ft | 481 kts | 93° |
| 2026-05-06 17:22 | 53.68654 | -7.86307 | 34957 ft | 480 kts | 93° |
| 2026-05-06 17:23 | 53.67794 | -7.75229 | 34951 ft | 480 kts | 93° |
| 2026-05-06 17:23 | 53.66920 | -7.64100 | 34957 ft | 479 kts | 93° |
| 2026-05-06 17:24 | 53.66043 | -7.53075 | 34958 ft | 478 kts | 93° |
| 2026-05-06 17:24 | 53.65150 | -7.41980 | 34961 ft | 478 kts | 93° |
| 2026-05-06 17:25 | 53.64252 | -7.30959 | 34963 ft | 478 kts | 94° |
| 2026-05-06 17:25 | 53.63347 | -7.19970 | 34957 ft | 476 kts | 94° |
| 2026-05-06 17:26 | 53.62425 | -7.08904 | 34961 ft | 477 kts | 94° |
| 2026-05-06 17:26 | 53.61497 | -6.97897 | 34964 ft | 478 kts | 94° |
| 2026-05-06 17:27 | 53.60559 | -6.86899 | 34961 ft | 477 kts | 94° |
| 2026-05-06 17:27 | 53.59614 | -6.75934 | 34962 ft | 476 kts | 94° |
| 2026-05-06 17:28 | 53.58647 | -6.64825 | 35302 ft | 479 kts | 94° |
| 2026-05-06 17:28 | 53.58162 | -6.59302 | 35514 ft | 481 kts | 94° |
| 2026-05-06 17:28 | 53.57673 | -6.53773 | 35765 ft | 481 kts | 94° |
| 2026-05-06 17:28 | 53.57182 | -6.48242 | 35953 ft | 481 kts | 95° |
| 2026-05-06 17:29 | 53.56690 | -6.42728 | 36136 ft | 481 kts | 95° |
| 2026-05-06 17:29 | 53.56185 | -6.37118 | 36314 ft | 481 kts | 95° |
| 2026-05-06 17:29 | 53.55685 | -6.31574 | 36504 ft | 481 kts | 96° |
| 2026-05-06 17:29 | 53.55185 | -6.26077 | 36730 ft | 481 kts | 96° |
| 2026-05-06 17:30 | 53.54676 | -6.20496 | 36916 ft | 482 kts | 96° |
| 2026-05-06 17:30 | 53.53657 | -6.09439 | 36978 ft | 477 kts | 96° |
| 2026-05-06 17:31 | 53.52639 | -5.98480 | 36987 ft | 480 kts | 96° |
| 2026-05-06 17:31 | 53.51603 | -5.87458 | 36993 ft | 481 kts | 96° |
| 2026-05-06 17:32 | 53.50550 | -5.76364 | 37001 ft | 480 kts | 96° |
| 2026-05-06 17:32 | 53.49498 | -5.65386 | 37002 ft | 480 kts | 96° |
| 2026-05-06 17:33 | 53.48428 | -5.54330 | 36997 ft | 480 kts | 96° |
| 2026-05-06 17:33 | 53.47737 | -5.43328 | 37007 ft | 476 kts | 88° |
| 2026-05-06 17:34 | 53.47486 | -5.32243 | 37004 ft | 477 kts | 90° |
| 2026-05-06 17:34 | 53.47183 | -5.21113 | 37001 ft | 478 kts | 90° |
| 2026-05-06 17:35 | 53.46856 | -5.10064 | 37003 ft | 478 kts | 90° |
| 2026-05-06 17:35 | 53.46509 | -4.98988 | 37010 ft | 479 kts | 90° |
| 2026-05-06 17:36 | 53.45965 | -4.82284 | 37006 ft | 479 kts | 90° |
| 2026-05-06 17:36 | 53.45595 | -4.71201 | 37008 ft | 479 kts | 91° |
| 2026-05-06 17:37 | 53.45211 | -4.60051 | 37010 ft | 479 kts | 90° |
| 2026-05-06 17:37 | 53.44820 | -4.48984 | 37008 ft | 479 kts | 91° |
| 2026-05-06 17:38 | 53.44420 | -4.37921 | 37008 ft | 479 kts | 91° |
| 2026-05-06 17:38 | 53.44003 | -4.26748 | 37006 ft | 479 kts | 92° |
| 2026-05-06 17:39 | 53.43578 | -4.15598 | 37008 ft | 481 kts | 92° |
| 2026-05-06 17:39 | 53.43144 | -4.04497 | 37004 ft | 481 kts | 91° |
| 2026-05-06 17:40 | 53.42699 | -3.93374 | 37001 ft | 481 kts | 91° |
| 2026-05-06 17:40 | 53.42244 | -3.82246 | 37002 ft | 481 kts | 92° |
| 2026-05-06 17:41 | 53.41775 | -3.71067 | 37006 ft | 481 kts | 92° |
| 2026-05-06 17:41 | 53.41298 | -3.59932 | 37004 ft | 481 kts | 92° |
| 2026-05-06 17:42 | 53.40810 | -3.48806 | 37008 ft | 481 kts | 92° |
| 2026-05-06 17:42 | 53.40312 | -3.37660 | 37246 ft | 484 kts | 92° |
| 2026-05-06 17:43 | 53.40056 | -3.32033 | 36996 ft | 486 kts | 92° |
| 2026-05-06 17:43 | 53.39799 | -3.26437 | 37019 ft | 480 kts | 92° |
| 2026-05-06 17:43 | 53.39280 | -3.15286 | 37012 ft | 481 kts | 93° |
| 2026-05-06 17:44 | 53.38851 | -3.04179 | 37017 ft | 484 kts | 92° |
| 2026-05-06 17:44 | 53.38427 | -2.92885 | 37012 ft | 484 kts | 92° |
| 2026-05-06 17:45 | 53.37997 | -2.81727 | 37010 ft | 482 kts | 92° |
| 2026-05-06 17:45 | 53.37556 | -2.70549 | 37013 ft | 484 kts | 92° |
| 2026-05-06 17:46 | 53.37102 | -2.59329 | 37013 ft | 483 kts | 92° |
| 2026-05-06 17:46 | 53.36641 | -2.48175 | 37013 ft | 484 kts | 92° |
| 2026-05-06 17:47 | 53.36166 | -2.36956 | 37014 ft | 485 kts | 92° |
| 2026-05-06 17:47 | 53.35603 | -2.25748 | 37010 ft | 486 kts | 98° |
| 2026-05-06 17:48 | 53.34502 | -2.14660 | 37006 ft | 487 kts | 99° |
| 2026-05-06 17:48 | 53.33364 | -2.03473 | 36997 ft | 486 kts | 99° |
| 2026-05-06 17:49 | 53.32220 | -1.92412 | 36992 ft | 486 kts | 99° |
| 2026-05-06 17:49 | 53.31063 | -1.81361 | 36999 ft | 486 kts | 99° |
| 2026-05-06 17:50 | 53.29889 | -1.70260 | 37005 ft | 486 kts | 99° |
| 2026-05-06 17:50 | 53.28706 | -1.59181 | 37011 ft | 486 kts | 99° |
| 2026-05-06 17:51 | 53.27514 | -1.48123 | 37013 ft | 487 kts | 99° |
| 2026-05-06 17:51 | 53.26309 | -1.37049 | 37018 ft | 488 kts | 99° |
| 2026-05-06 17:52 | 53.25088 | -1.25932 | 37012 ft | 488 kts | 100° |
| 2026-05-06 17:52 | 53.23863 | -1.14865 | 37016 ft | 488 kts | 100° |
| 2026-05-06 17:53 | 53.22620 | -1.03746 | 37024 ft | 488 kts | 100° |
| 2026-05-06 17:53 | 53.21370 | -0.92660 | 37029 ft | 487 kts | 100° |
| 2026-05-06 17:54 | 53.20111 | -0.81591 | 37034 ft | 487 kts | 100° |
| 2026-05-06 17:54 | 53.18847 | -0.70581 | 37037 ft | 488 kts | 100° |
| 2026-05-06 17:55 | 53.17557 | -0.59433 | 37037 ft | 489 kts | 100° |
| 2026-05-06 17:55 | 53.16265 | -0.48370 | 37038 ft | 489 kts | 101° |
| 2026-05-06 17:56 | 53.14962 | -0.37300 | 37038 ft | 489 kts | 101° |
| 2026-05-06 17:56 | 53.13647 | -0.26227 | 37035 ft | 489 kts | 101° |
| 2026-05-06 17:57 | 53.12319 | -0.15137 | 37035 ft | 489 kts | 102° |
| 2026-05-06 17:57 | 53.10986 | -0.04104 | 37036 ft | 489 kts | 102° |
| 2026-05-06 17:58 | 53.09643 | 0.06929 | 37036 ft | 489 kts | 102° |
| 2026-05-06 17:58 | 53.08292 | 0.17928 | 37039 ft | 489 kts | 102° |
| 2026-05-06 17:59 | 53.06922 | 0.29000 | 37033 ft | 488 kts | 102° |
| 2026-05-06 17:59 | 53.05553 | 0.39971 | 37027 ft | 489 kts | 102° |
| 2026-05-06 18:00 | 53.04171 | 0.50963 | 37024 ft | 490 kts | 102° |
| 2026-05-06 18:00 | 53.02769 | 0.62021 | 37026 ft | 489 kts | 102° |
| 2026-05-06 18:01 | 53.01363 | 0.73024 | 37016 ft | 488 kts | 103° |
| 2026-05-06 18:01 | 52.99952 | 0.83981 | 37007 ft | 488 kts | 103° |
| 2026-05-06 18:02 | 52.98531 | 0.94923 | 37014 ft | 489 kts | 103° |
| 2026-05-06 18:02 | 52.96552 | 1.05567 | 37014 ft | 486 kts | 111° |
| 2026-05-06 18:03 | 52.94218 | 1.16108 | 37008 ft | 488 kts | 111° |
| 2026-05-06 18:03 | 52.91865 | 1.26555 | 37006 ft | 487 kts | 111° |
| 2026-05-06 18:04 | 52.89490 | 1.36999 | 37006 ft | 487 kts | 111° |
| 2026-05-06 18:04 | 52.87099 | 1.47443 | 37005 ft | 487 kts | 111° |
| 2026-05-06 18:05 | 52.84692 | 1.57900 | 37007 ft | 487 kts | 111° |
| 2026-05-06 18:05 | 52.82279 | 1.68332 | 37006 ft | 487 kts | 112° |
| 2026-05-06 18:06 | 52.79863 | 1.78724 | 37004 ft | 486 kts | 112° |
| 2026-05-06 18:06 | 52.77446 | 1.89068 | 37007 ft | 486 kts | 112° |
| 2026-05-06 18:07 | 52.75022 | 1.99392 | 37005 ft | 486 kts | 112° |
| 2026-05-06 18:07 | 52.72574 | 2.09770 | 37004 ft | 485 kts | 112° |
| 2026-05-06 18:08 | 52.70114 | 2.20146 | 37001 ft | 485 kts | 112° |
| 2026-05-06 18:08 | 52.67671 | 2.30404 | 36997 ft | 484 kts | 112° |
| 2026-05-06 18:09 | 52.65208 | 2.40697 | 36986 ft | 483 kts | 112° |
| 2026-05-06 18:09 | 52.62749 | 2.50925 | 36995 ft | 484 kts | 112° |
| 2026-05-06 18:10 | 52.60261 | 2.61223 | 36987 ft | 483 kts | 112° |
| 2026-05-06 18:10 | 52.57788 | 2.71411 | 36984 ft | 483 kts | 113° |
| 2026-05-06 18:11 | 52.55702 | 2.79969 | 36984 ft | 484 kts | 113° |
| 2026-05-06 18:11 | 52.52197 | 2.91414 | 36987 ft | 483 kts | 119° |
| 2026-05-06 18:12 | 52.49011 | 3.01025 | 36984 ft | 481 kts | 120° |
| 2026-05-06 18:12 | 52.45817 | 3.10568 | 36981 ft | 481 kts | 120° |
| 2026-05-06 18:13 | 52.42583 | 3.20170 | 36974 ft | 481 kts | 120° |
| 2026-05-06 18:13 | 52.39361 | 3.29690 | 36967 ft | 481 kts | 120° |
| 2026-05-06 18:14 | 52.36130 | 3.39198 | 36961 ft | 480 kts | 120° |
| 2026-05-06 18:14 | 52.32894 | 3.48682 | 36959 ft | 481 kts | 120° |
| 2026-05-06 18:15 | 52.29625 | 3.58230 | 36955 ft | 481 kts | 120° |
| 2026-05-06 18:15 | 52.26367 | 3.67705 | 36946 ft | 480 kts | 121° |
| 2026-05-06 18:16 | 52.23103 | 3.77165 | 36934 ft | 479 kts | 121° |
| 2026-05-06 18:16 | 52.19856 | 3.86537 | 36935 ft | 479 kts | 121° |
| 2026-05-06 18:17 | 52.16585 | 3.95946 | 36930 ft | 479 kts | 121° |
| 2026-05-06 18:17 | 52.13290 | 4.05387 | 36932 ft | 479 kts | 121° |
| 2026-05-06 18:18 | 52.10009 | 4.14754 | 36925 ft | 479 kts | 121° |
| 2026-05-06 18:18 | 52.06719 | 4.24109 | 36920 ft | 479 kts | 121° |
| 2026-05-06 18:19 | 52.03418 | 4.33463 | 36924 ft | 478 kts | 121° |
| 2026-05-06 18:19 | 52.00127 | 4.42753 | 36919 ft | 477 kts | 121° |
| 2026-05-06 18:20 | 51.96807 | 4.52088 | 36923 ft | 477 kts | 121° |
| 2026-05-06 18:20 | 51.93499 | 4.61357 | 36922 ft | 477 kts | 121° |
| 2026-05-06 18:21 | 51.90193 | 4.70590 | 36918 ft | 477 kts | 122° |
| 2026-05-06 18:21 | 51.87056 | 4.79316 | 36921 ft | 477 kts | 121° |
| 2026-05-06 18:22 | 51.83516 | 4.89129 | 36910 ft | 477 kts | 122° |
| 2026-05-06 18:22 | 51.80171 | 4.98364 | 36918 ft | 476 kts | 121° |
| 2026-05-06 18:23 | 51.76837 | 5.07537 | 36920 ft | 475 kts | 121° |
| 2026-05-06 18:23 | 51.73505 | 5.16672 | 36921 ft | 475 kts | 121° |
| 2026-05-06 18:24 | 51.70150 | 5.25833 | 36916 ft | 474 kts | 121° |
| 2026-05-06 18:24 | 51.66793 | 5.34972 | 36917 ft | 474 kts | 121° |
| 2026-05-06 18:25 | 51.63436 | 5.44077 | 36913 ft | 475 kts | 122° |
| 2026-05-06 18:25 | 51.60056 | 5.53209 | 36912 ft | 474 kts | 122° |
| 2026-05-06 18:26 | 51.56701 | 5.62242 | 36910 ft | 474 kts | 122° |
| 2026-05-06 18:26 | 51.53013 | 5.70991 | 36913 ft | 472 kts | 127° |
| 2026-05-06 18:27 | 51.49242 | 5.79501 | 36911 ft | 471 kts | 127° |
| 2026-05-06 18:27 | 51.45470 | 5.88058 | 36903 ft | 471 kts | 127° |
| 2026-05-06 18:28 | 51.41703 | 5.96607 | 36903 ft | 471 kts | 127° |
| 2026-05-06 18:28 | 51.37918 | 6.05179 | 36900 ft | 471 kts | 127° |
| 2026-05-06 18:29 | 51.34199 | 6.13580 | 36905 ft | 471 kts | 127° |
| 2026-05-06 18:29 | 51.30483 | 6.21946 | 36898 ft | 471 kts | 127° |
| 2026-05-06 18:30 | 51.26620 | 6.30618 | 36891 ft | 471 kts | 127° |
| 2026-05-06 18:30 | 51.22823 | 6.39113 | 36894 ft | 471 kts | 127° |
| 2026-05-06 18:31 | 51.19031 | 6.47569 | 36884 ft | 470 kts | 127° |
| 2026-05-06 18:31 | 51.15218 | 6.56043 | 36879 ft | 470 kts | 127° |
| 2026-05-06 18:32 | 51.11396 | 6.64511 | 36881 ft | 470 kts | 127° |
| 2026-05-06 18:32 | 51.07582 | 6.72931 | 36871 ft | 470 kts | 128° |
| 2026-05-06 18:33 | 51.03772 | 6.81317 | 36865 ft | 470 kts | 128° |
| 2026-05-06 18:33 | 50.99927 | 6.89755 | 36871 ft | 470 kts | 128° |
| 2026-05-06 18:34 | 50.96105 | 6.98115 | 36867 ft | 469 kts | 128° |
| 2026-05-06 18:34 | 50.92284 | 7.06443 | 36853 ft | 469 kts | 128° |
| 2026-05-06 18:35 | 50.88453 | 7.14767 | 36854 ft | 469 kts | 128° |
| 2026-05-06 18:35 | 50.84605 | 7.23103 | 36849 ft | 469 kts | 128° |
| 2026-05-06 18:36 | 50.80769 | 7.31384 | 36847 ft | 468 kts | 128° |
| 2026-05-06 18:36 | 50.76923 | 7.39662 | 36851 ft | 468 kts | 128° |
| 2026-05-06 18:37 | 50.73707 | 7.46565 | 36843 ft | 468 kts | 128° |
| 2026-05-06 18:37 | 50.69221 | 7.56161 | 36845 ft | 468 kts | 128° |
| 2026-05-06 18:38 | 50.65355 | 7.64404 | 36846 ft | 468 kts | 128° |
| 2026-05-06 18:38 | 50.61501 | 7.72596 | 36840 ft | 467 kts | 129° |
| 2026-05-06 18:39 | 50.57634 | 7.80789 | 36836 ft | 466 kts | 129° |
| 2026-05-06 18:40 | 50.51433 | 7.92489 | 36844 ft | 465 kts | 135° |
| 2026-05-06 18:40 | 50.47072 | 7.99955 | 36841 ft | 465 kts | 135° |
| 2026-05-06 18:41 | 50.42761 | 8.07396 | 36836 ft | 463 kts | 135° |
| 2026-05-06 18:41 | 50.38408 | 8.14920 | 36835 ft | 464 kts | 135° |
| 2026-05-06 18:42 | 50.34099 | 8.22359 | 36832 ft | 464 kts | 135° |
| 2026-05-06 18:42 | 50.29770 | 8.29816 | 36826 ft | 463 kts | 135° |
| 2026-05-06 18:43 | 50.25435 | 8.37263 | 36817 ft | 463 kts | 135° |
| 2026-05-06 18:43 | 50.21119 | 8.44657 | 36816 ft | 463 kts | 135° |
| 2026-05-06 18:44 | 50.16761 | 8.52103 | 36819 ft | 463 kts | 135° |
| 2026-05-06 18:44 | 50.12429 | 8.59480 | 36816 ft | 463 kts | 135° |
| 2026-05-06 18:45 | 50.08108 | 8.66821 | 36815 ft | 462 kts | 136° |
| 2026-05-06 18:45 | 50.03769 | 8.74167 | 36812 ft | 462 kts | 136° |
| 2026-05-06 18:46 | 49.99430 | 8.81495 | 36808 ft | 462 kts | 136° |
| 2026-05-06 18:46 | 49.95078 | 8.88824 | 36802 ft | 462 kts | 136° |
| 2026-05-06 18:47 | 49.90718 | 8.96143 | 36748 ft | 460 kts | 136° |
| 2026-05-06 18:47 | 49.88573 | 8.99739 | 36461 ft | 458 kts | 136° |
| 2026-05-06 18:47 | 49.86447 | 9.03295 | 35986 ft | 459 kts | 136° |
| 2026-05-06 18:47 | 49.84265 | 9.06941 | 35588 ft | 458 kts | 136° |
| 2026-05-06 18:48 | 49.82096 | 9.10560 | 35250 ft | 457 kts | 136° |
| 2026-05-06 18:48 | 49.79951 | 9.14133 | 34928 ft | 456 kts | 136° |
| 2026-05-06 18:48 | 49.77802 | 9.17711 | 34817 ft | 451 kts | 136° |
| 2026-05-06 18:49 | 49.73527 | 9.24806 | 34834 ft | 455 kts | 137° |
| 2026-05-06 18:49 | 49.69191 | 9.31980 | 34830 ft | 463 kts | 137° |
| 2026-05-06 18:50 | 49.64812 | 9.39211 | 34819 ft | 461 kts | 137° |
| 2026-05-06 18:50 | 49.60418 | 9.46445 | 34827 ft | 461 kts | 137° |
| 2026-05-06 18:51 | 49.56021 | 9.53662 | 34828 ft | 462 kts | 137° |
| 2026-05-06 18:51 | 49.51643 | 9.60829 | 34831 ft | 462 kts | 137° |
| 2026-05-06 18:52 | 49.47229 | 9.68035 | 34833 ft | 461 kts | 138° |
| 2026-05-06 18:52 | 49.42853 | 9.75159 | 34841 ft | 460 kts | 138° |
| 2026-05-06 18:53 | 49.38454 | 9.82305 | 34834 ft | 461 kts | 137° |
| 2026-05-06 18:53 | 49.34196 | 9.89637 | 34829 ft | 462 kts | 136° |
| 2026-05-06 18:54 | 49.29932 | 9.96989 | 34836 ft | 463 kts | 136° |
| 2026-05-06 18:54 | 49.25655 | 10.04339 | 34842 ft | 464 kts | 136° |
| 2026-05-06 18:55 | 49.21358 | 10.11703 | 34833 ft | 461 kts | 136° |
| 2026-05-06 18:55 | 49.17095 | 10.18992 | 34831 ft | 463 kts | 136° |
| 2026-05-06 18:56 | 49.12758 | 10.26274 | 34833 ft | 462 kts | 138° |
| 2026-05-06 18:56 | 49.08349 | 10.33362 | 34788 ft | 463 kts | 138° |
| 2026-05-06 18:56 | 49.06126 | 10.36932 | 33967 ft | 470 kts | 137° |
| 2026-05-06 18:57 | 49.03895 | 10.40514 | 33243 ft | 464 kts | 137° |
| 2026-05-06 18:57 | 49.01687 | 10.44054 | 32464 ft | 462 kts | 137° |
| 2026-05-06 18:57 | 48.99466 | 10.47602 | 31686 ft | 463 kts | 137° |
| 2026-05-06 18:57 | 48.97230 | 10.51165 | 30958 ft | 471 kts | 137° |
| 2026-05-06 18:58 | 48.94985 | 10.54740 | 29936 ft | 467 kts | 137° |
| 2026-05-06 18:58 | 48.92786 | 10.58246 | 28998 ft | 453 kts | 136° |
| 2026-05-06 18:58 | 48.90649 | 10.61645 | 28056 ft | 441 kts | 136° |
| 2026-05-06 18:58 | 48.88589 | 10.64921 | 27127 ft | 430 kts | 136° |
| 2026-05-06 18:59 | 48.86533 | 10.68179 | 26201 ft | 424 kts | 137° |
| 2026-05-06 18:59 | 48.84516 | 10.71375 | 25263 ft | 417 kts | 136° |
| 2026-05-06 18:59 | 48.82544 | 10.74493 | 24343 ft | 410 kts | 136° |
| 2026-05-06 18:59 | 48.80594 | 10.77570 | 23428 ft | 404 kts | 136° |
| 2026-05-06 19:00 | 48.78664 | 10.80606 | 22514 ft | 403 kts | 136° |
| 2026-05-06 19:00 | 48.76724 | 10.83653 | 21609 ft | 397 kts | 136° |
| 2026-05-06 19:00 | 48.74844 | 10.86602 | 20719 ft | 394 kts | 136° |
| 2026-05-06 19:00 | 48.73592 | 10.88563 | 20129 ft | 391 kts | 136° |
| 2026-05-06 19:01 | 48.71088 | 10.92482 | 18939 ft | 385 kts | 136° |
| 2026-05-06 19:01 | 48.69246 | 10.95359 | 18060 ft | 381 kts | 136° |
| 2026-05-06 19:01 | 48.67416 | 10.98213 | 17178 ft | 377 kts | 137° |
| 2026-05-06 19:01 | 48.65616 | 11.01016 | 16886 ft | 371 kts | 137° |
| 2026-05-06 19:02 | 48.63806 | 11.03834 | 16843 ft | 371 kts | 137° |
| 2026-05-06 19:02 | 48.62039 | 11.06599 | 16832 ft | 370 kts | 137° |
| 2026-05-06 19:02 | 48.60262 | 11.09383 | 16177 ft | 369 kts | 137° |
| 2026-05-06 19:02 | 48.58487 | 11.12177 | 15597 ft | 368 kts | 137° |
| 2026-05-06 19:03 | 48.56727 | 11.14956 | 15135 ft | 365 kts | 137° |
| 2026-05-06 19:03 | 48.54980 | 11.17710 | 14580 ft | 364 kts | 137° |
| 2026-05-06 19:03 | 48.53245 | 11.20447 | 14145 ft | 360 kts | 137° |
| 2026-05-06 19:03 | 48.51551 | 11.23145 | 13593 ft | 360 kts | 137° |
| 2026-05-06 19:04 | 48.49822 | 11.25898 | 13142 ft | 357 kts | 137° |
| 2026-05-06 19:04 | 48.48174 | 11.28665 | 12635 ft | 358 kts | 129° |
| 2026-05-06 19:04 | 48.47033 | 11.32015 | 12092 ft | 364 kts | 108° |
| 2026-05-06 19:04 | 48.46704 | 11.35786 | 11616 ft | 366 kts | 94° |
| 2026-05-06 19:05 | 48.46631 | 11.39612 | 11282 ft | 366 kts | 94° |
| 2026-05-06 19:05 | 48.46550 | 11.43412 | 11073 ft | 366 kts | 94° |
| 2026-05-06 19:05 | 48.46464 | 11.47188 | 10882 ft | 364 kts | 94° |
| 2026-05-06 19:05 | 48.46377 | 11.50971 | 10751 ft | 357 kts | 94° |
| 2026-05-06 19:06 | 48.46294 | 11.54572 | 10714 ft | 330 kts | 94° |
| 2026-05-06 19:06 | 48.46230 | 11.57914 | 10663 ft | 306 kts | 94° |
| 2026-05-06 19:06 | 48.46172 | 11.61007 | 10418 ft | 293 kts | 94° |
| 2026-05-06 19:06 | 48.46109 | 11.64063 | 9853 ft | 291 kts | 94° |
| 2026-05-06 19:07 | 48.46041 | 11.67043 | 9356 ft | 289 kts | 95° |
| 2026-05-06 19:07 | 48.45992 | 11.69027 | 8946 ft | 290 kts | 94° |
| 2026-05-06 19:07 | 48.45893 | 11.73099 | 8202 ft | 290 kts | 89° |
| 2026-05-06 19:07 | 48.46060 | 11.76086 | 7830 ft | 284 kts | 84° |
| 2026-05-06 19:08 | 48.46259 | 11.79008 | 7883 ft | 282 kts | 84° |
| 2026-05-06 19:08 | 48.46461 | 11.81961 | 7749 ft | 286 kts | 84° |
| 2026-05-06 19:08 | 48.46657 | 11.84928 | 7346 ft | 288 kts | 84° |
| 2026-05-06 19:08 | 48.46843 | 11.87922 | 7061 ft | 288 kts | 84° |
| 2026-05-06 19:09 | 48.47016 | 11.90920 | 6736 ft | 289 kts | 84° |
| 2026-05-06 19:09 | 48.47178 | 11.93922 | 6495 ft | 288 kts | 84° |
| 2026-05-06 19:09 | 48.47333 | 11.96936 | 6287 ft | 285 kts | 84° |
| 2026-05-06 19:09 | 48.47487 | 11.99921 | 5965 ft | 287 kts | 84° |
| 2026-05-06 19:10 | 48.47647 | 12.02889 | 5786 ft | 283 kts | 84° |
| 2026-05-06 19:10 | 48.47805 | 12.05814 | 5505 ft | 284 kts | 84° |
| 2026-05-06 19:10 | 48.47896 | 12.08753 | 5213 ft | 284 kts | 96° |
| 2026-05-06 19:10 | 48.47308 | 12.11551 | 4982 ft | 280 kts | 125° |
| 2026-05-06 19:11 | 48.45954 | 12.13566 | 4851 ft | 267 kts | 156° |
| 2026-05-06 19:11 | 48.44264 | 12.14403 | 4839 ft | 250 kts | 173° |
| 2026-05-06 19:11 | 48.42570 | 12.14545 | 4622 ft | 241 kts | 198° |
| 2026-05-06 19:11 | 48.41133 | 12.13476 | 4409 ft | 226 kts | 229° |
| 2026-05-06 19:12 | 48.40072 | 12.11754 | 4207 ft | 222 kts | 234° |
| 2026-05-06 19:12 | 48.39105 | 12.09979 | 4014 ft | 218 kts | 244° |
| 2026-05-06 19:12 | 48.38712 | 12.07897 | 4018 ft | 196 kts | 265° |
| 2026-05-06 19:12 | 48.38547 | 12.05958 | 3978 ft | 179 kts | 264° |
| 2026-05-06 19:13 | 48.38387 | 12.04178 | 3947 ft | 169 kts | 265° |
| 2026-05-06 19:13 | 48.38241 | 12.02421 | 4014 ft | 170 kts | 265° |
| 2026-05-06 19:13 | 48.38098 | 12.00616 | 3886 ft | 181 kts | 265° |
| 2026-05-06 19:13 | 48.37952 | 11.98760 | 3690 ft | 171 kts | 265° |
| 2026-05-06 19:14 | 48.37820 | 11.97058 | 3419 ft | 157 kts | 265° |
| 2026-05-06 19:14 | 48.37701 | 11.95499 | 3186 ft | 143 kts | 266° |
| 2026-05-06 19:14 | 48.37596 | 11.94126 | 3092 ft | 122 kts | 265° |
| 2026-05-06 19:14 | 48.37501 | 11.92845 | 2952 ft | 128 kts | 265° |
| 2026-05-06 19:15 | 48.37402 | 11.91507 | 2791 ft | 132 kts | 264° |
| 2026-05-06 19:15 | 48.37299 | 11.90140 | 2580 ft | 131 kts | 266° |
| 2026-05-06 19:15 | 48.37177 | 11.88783 | 2369 ft | 130 kts | 262° |
| 2026-05-06 19:15 | 48.37094 | 11.87435 | 2206 ft | 130 kts | 266° |
| 2026-05-06 19:16 | 48.36992 | 11.86073 | 2035 ft | 133 kts | 262° |
| 2026-05-06 19:16 | 48.36884 | 11.84693 | 1873 ft | 134 kts | 264° |
| 2026-05-06 19:16 | 48.36779 | 11.83294 | 1658 ft | 138 kts | 264° |
| 2026-05-06 19:16 | 48.36669 | 11.81868 | 1482 ft | 137 kts | 265° |
| 2026-05-06 19:17 | 48.36563 | 11.80577 | 1463 ft | 95 kts | 264° |
| 2026-05-06 19:17 | 48.36504 | 11.79878 | 1466 ft | 44 kts | 251° |
| 2026-05-06 19:17 | 48.36415 | 11.79635 | 1468 ft | 10 kts | 235° |
| 2026-05-06 19:17 | 48.36377 | 11.79554 | 1468 ft | 8 kts | 235° |
| 2026-05-06 19:18 | 48.36345 | 11.79488 | 1469 ft | 7 kts | 233° |
| 2026-05-06 19:18 | 48.36312 | 11.79421 | 1469 ft | 8 kts | 233° |
| 2026-05-06 19:18 | 48.36273 | 11.79349 | 1470 ft | 9 kts | 225° |
| 2026-05-06 19:18 | 48.36221 | 11.79301 | 1471 ft | 8 kts | 192° |
| 2026-05-06 19:19 | 48.36161 | 11.79303 | 1471 ft | 8 kts | 172° |
| 2026-05-06 19:19 | 48.36094 | 11.79315 | 1472 ft | 10 kts | 173° |
| 2026-05-06 19:19 | 48.36010 | 11.79330 | 1472 ft | 13 kts | 174° |
| 2026-05-06 19:19 | 48.35987 | 11.79334 | 1472 ft | 4 kts | 173° |
| 2026-05-06 19:20 | 48.35941 | 11.79343 | 1473 ft | 8 kts | 171° |
| 2026-05-06 19:20 | 48.35903 | 11.79312 | 1473 ft | 6 kts | 246° |
| 2026-05-06 19:20 | 48.35894 | 11.79244 | 1474 ft | 5 kts | 263° |
| 2026-05-06 19:20 | 48.35893 | 11.79236 | 1474 ft | 0 kts | 263° |